DLH504 EDDM-SBGR
Flight info
| Callsign | DLH504 |
|---|---|
| Flight time | N/A |
| Altitude | 33000 |
| Route | ALG2N ALG Y109 UMTEX Y100 TRA Z69 OLBEN N869 NINTU DCT PIMAK DCT TITVA DCT LACOU DCT URUNA/N0479F350 P181 NEA L14 ADINO/N0428F230 L14 ELVAR UN975 SNT/N0442F240 UN741 NELSO/N0481F360 N741 ERONI/N0481F370 N741 EDUMO UN741 MERUD/N0483F380 UN741 ERUGU UZ61 NAXUN/N0478F400 UZ61 REDAD UZ21 VUNOX |
| Aircraft | A346/H-SDE2E3FGHIJ3J4J5M1RWXY/LB1D1 |
Departure
| Time | 2026-05-07 10:05 |
|---|---|
| Airport | Munich Airport (EDDM) |
Arrival
| Time | N/A |
|---|---|
| Airport | São Paulo/Guarulhos–Governor André Franco Montoro International Airport (SBGR) |
| Time | Latitude | Longitude | Altitude | Speed | Heading |
|---|---|---|---|---|---|
| 2026-05-07 09:26 | 48.35469 | 11.79733 | 1477 ft | 0 kts | 83° |
| 2026-05-07 09:51 | 48.35469 | 11.79731 | 1466 ft | 2 kts | 83° |
| 2026-05-07 09:51 | 48.35466 | 11.79693 | 1489 ft | 4 kts | 83° |
| 2026-05-07 09:51 | 48.35463 | 11.79656 | 1477 ft | 1 kts | 83° |
| 2026-05-07 09:51 | 48.35458 | 11.79624 | 1477 ft | 4 kts | 65° |
| 2026-05-07 09:52 | 48.35447 | 11.79600 | 1477 ft | 4 kts | 30° |
| 2026-05-07 09:52 | 48.35429 | 11.79594 | 1477 ft | 3 kts | 354° |
| 2026-05-07 09:52 | 48.35404 | 11.79599 | 1477 ft | 4 kts | 353° |
| 2026-05-07 09:52 | 48.35388 | 11.79601 | 1477 ft | 0 kts | 353° |
| 2026-05-07 09:56 | 48.35399 | 11.79599 | 1493 ft | 4 kts | 353° |
| 2026-05-07 09:56 | 48.35453 | 11.79590 | 1485 ft | 10 kts | 353° |
| 2026-05-07 09:57 | 48.35524 | 11.79577 | 1480 ft | 11 kts | 354° |
| 2026-05-07 09:57 | 48.35605 | 11.79564 | 1488 ft | 12 kts | 353° |
| 2026-05-07 09:57 | 48.35692 | 11.79548 | 1483 ft | 13 kts | 353° |
| 2026-05-07 09:57 | 48.35786 | 11.79532 | 1485 ft | 14 kts | 353° |
| 2026-05-07 09:58 | 48.35883 | 11.79515 | 1485 ft | 14 kts | 353° |
| 2026-05-07 09:58 | 48.35984 | 11.79498 | 1490 ft | 14 kts | 353° |
| 2026-05-07 09:58 | 48.36064 | 11.79484 | 1482 ft | 8 kts | 357° |
| 2026-05-07 09:58 | 48.36106 | 11.79528 | 1481 ft | 9 kts | 70° |
| 2026-05-07 09:59 | 48.36117 | 11.79625 | 1493 ft | 10 kts | 83° |
| 2026-05-07 09:59 | 48.36126 | 11.79738 | 1484 ft | 12 kts | 83° |
| 2026-05-07 09:59 | 48.36136 | 11.79876 | 1479 ft | 15 kts | 83° |
| 2026-05-07 09:59 | 48.36150 | 11.80051 | 1479 ft | 18 kts | 83° |
| 2026-05-07 10:00 | 48.36166 | 11.80258 | 1480 ft | 22 kts | 83° |
| 2026-05-07 10:00 | 48.36184 | 11.80501 | 1493 ft | 25 kts | 84° |
| 2026-05-07 10:00 | 48.36205 | 11.80770 | 1493 ft | 26 kts | 83° |
| 2026-05-07 10:00 | 48.36227 | 11.81044 | 1488 ft | 27 kts | 83° |
| 2026-05-07 10:01 | 48.36247 | 11.81310 | 1489 ft | 24 kts | 83° |
| 2026-05-07 10:01 | 48.36266 | 11.81556 | 1480 ft | 24 kts | 83° |
| 2026-05-07 10:01 | 48.36284 | 11.81796 | 1488 ft | 20 kts | 84° |
| 2026-05-07 10:01 | 48.36297 | 11.81960 | 1490 ft | 14 kts | 83° |
| 2026-05-07 10:02 | 48.36306 | 11.82081 | 1489 ft | 10 kts | 81° |
| 2026-05-07 10:02 | 48.36352 | 11.82152 | 1485 ft | 11 kts | 2° |
| 2026-05-07 10:02 | 48.36433 | 11.82141 | 1481 ft | 12 kts | 353° |
| 2026-05-07 10:02 | 48.36520 | 11.82126 | 1492 ft | 13 kts | 353° |
| 2026-05-07 10:03 | 48.36608 | 11.82093 | 1490 ft | 13 kts | 320° |
| 2026-05-07 10:03 | 48.36663 | 11.81988 | 1482 ft | 12 kts | 290° |
| 2026-05-07 10:03 | 48.36670 | 11.81872 | 1490 ft | 5 kts | 264° |
| 2026-05-07 10:03 | 48.36663 | 11.81786 | 1484 ft | 18 kts | 263° |
| 2026-05-07 10:04 | 48.36626 | 11.81312 | 1482 ft | 73 kts | 263° |
| 2026-05-07 10:04 | 48.36549 | 11.80303 | 1494 ft | 121 kts | 263° |
| 2026-05-07 10:04 | 48.36434 | 11.78817 | 1491 ft | 162 kts | 263° |
| 2026-05-07 10:04 | 48.36295 | 11.77019 | 1730 ft | 176 kts | 263° |
| 2026-05-07 10:05 | 48.36158 | 11.75160 | 2163 ft | 182 kts | 264° |
| 2026-05-07 10:05 | 48.36019 | 11.73258 | 2725 ft | 185 kts | 263° |
| 2026-05-07 10:05 | 48.35843 | 11.71313 | 3138 ft | 191 kts | 262° |
| 2026-05-07 10:05 | 48.35635 | 11.69293 | 3468 ft | 197 kts | 261° |
| 2026-05-07 10:06 | 48.35424 | 11.67223 | 3729 ft | 204 kts | 262° |
| 2026-05-07 10:06 | 48.35265 | 11.65047 | 4033 ft | 212 kts | 264° |
| 2026-05-07 10:06 | 48.35127 | 11.62802 | 4339 ft | 224 kts | 264° |
| 2026-05-07 10:06 | 48.34977 | 11.60385 | 4757 ft | 234 kts | 264° |
| 2026-05-07 10:07 | 48.34810 | 11.57923 | 5217 ft | 243 kts | 264° |
| 2026-05-07 10:07 | 48.34624 | 11.55364 | 5755 ft | 249 kts | 263° |
| 2026-05-07 10:07 | 48.34436 | 11.52716 | 6318 ft | 255 kts | 263° |
| 2026-05-07 10:07 | 48.34243 | 11.50080 | 6932 ft | 258 kts | 263° |
| 2026-05-07 10:08 | 48.34048 | 11.47391 | 7609 ft | 259 kts | 263° |
| 2026-05-07 10:08 | 48.33847 | 11.44670 | 8274 ft | 262 kts | 263° |
| 2026-05-07 10:08 | 48.33644 | 11.41953 | 8932 ft | 265 kts | 263° |
| 2026-05-07 10:08 | 48.33438 | 11.39185 | 9603 ft | 268 kts | 263° |
| 2026-05-07 10:09 | 48.33228 | 11.36396 | 10233 ft | 271 kts | 263° |
| 2026-05-07 10:09 | 48.33015 | 11.33565 | 10875 ft | 271 kts | 262° |
| 2026-05-07 10:09 | 48.32610 | 11.30778 | 11470 ft | 272 kts | 250° |
| 2026-05-07 10:09 | 48.31797 | 11.28180 | 11936 ft | 280 kts | 238° |
| 2026-05-07 10:10 | 48.30714 | 11.25687 | 12186 ft | 294 kts | 237° |
| 2026-05-07 10:10 | 48.29542 | 11.23093 | 12450 ft | 307 kts | 236° |
| 2026-05-07 10:10 | 48.28302 | 11.20356 | 12747 ft | 321 kts | 236° |
| 2026-05-07 10:10 | 48.27024 | 11.17532 | 13014 ft | 336 kts | 236° |
| 2026-05-07 10:11 | 48.25687 | 11.14570 | 13296 ft | 350 kts | 236° |
| 2026-05-07 10:11 | 48.24302 | 11.11502 | 13580 ft | 363 kts | 236° |
| 2026-05-07 10:11 | 48.22864 | 11.08319 | 14011 ft | 370 kts | 236° |
| 2026-05-07 10:11 | 48.21406 | 11.05094 | 14599 ft | 373 kts | 236° |
| 2026-05-07 10:12 | 48.19944 | 11.01863 | 15183 ft | 375 kts | 236° |
| 2026-05-07 10:12 | 48.18469 | 10.98607 | 15723 ft | 379 kts | 236° |
| 2026-05-07 10:12 | 48.16981 | 10.95324 | 16256 ft | 382 kts | 236° |
| 2026-05-07 10:12 | 48.15478 | 10.92011 | 16808 ft | 385 kts | 236° |
| 2026-05-07 10:13 | 48.13977 | 10.88710 | 17312 ft | 388 kts | 236° |
| 2026-05-07 10:13 | 48.12961 | 10.86476 | 17678 ft | 390 kts | 236° |
| 2026-05-07 10:13 | 48.11039 | 10.81863 | 18442 ft | 393 kts | 242° |
| 2026-05-07 10:13 | 48.09879 | 10.78145 | 18918 ft | 396 kts | 248° |
| 2026-05-07 10:14 | 48.08981 | 10.74231 | 19364 ft | 399 kts | 253° |
| 2026-05-07 10:14 | 48.08459 | 10.71574 | 19673 ft | 401 kts | 253° |
| 2026-05-07 10:14 | 48.07689 | 10.67541 | 20151 ft | 404 kts | 254° |
| 2026-05-07 10:14 | 48.06912 | 10.63457 | 20527 ft | 410 kts | 255° |
| 2026-05-07 10:15 | 48.05872 | 10.57983 | 21068 ft | 415 kts | 255° |
| 2026-05-07 10:15 | 48.05340 | 10.55203 | 21379 ft | 417 kts | 255° |
| 2026-05-07 10:15 | 48.04539 | 10.51032 | 21846 ft | 418 kts | 255° |
| 2026-05-07 10:15 | 48.03730 | 10.46827 | 22283 ft | 422 kts | 255° |
| 2026-05-07 10:16 | 48.02917 | 10.42617 | 22682 ft | 426 kts | 255° |
| 2026-05-07 10:16 | 48.02080 | 10.38299 | 23127 ft | 429 kts | 255° |
| 2026-05-07 10:16 | 48.01256 | 10.34057 | 23581 ft | 431 kts | 255° |
| 2026-05-07 10:16 | 48.00409 | 10.29703 | 23927 ft | 434 kts | 255° |
| 2026-05-07 10:17 | 47.99507 | 10.25417 | 24254 ft | 438 kts | 252° |
| 2026-05-07 10:17 | 47.98449 | 10.21093 | 24642 ft | 440 kts | 251° |
| 2026-05-07 10:17 | 47.97381 | 10.16808 | 24920 ft | 445 kts | 251° |
| 2026-05-07 10:17 | 47.96301 | 10.12471 | 25210 ft | 448 kts | 251° |
| 2026-05-07 10:18 | 47.95200 | 10.08078 | 25560 ft | 451 kts | 251° |
| 2026-05-07 10:18 | 47.94099 | 10.03683 | 25925 ft | 453 kts | 251° |
| 2026-05-07 10:18 | 47.92998 | 9.99292 | 26256 ft | 456 kts | 251° |
| 2026-05-07 10:18 | 47.91874 | 9.94827 | 26578 ft | 458 kts | 251° |
| 2026-05-07 10:19 | 47.90748 | 9.90368 | 26922 ft | 461 kts | 251° |
| 2026-05-07 10:19 | 47.89627 | 9.85923 | 27232 ft | 463 kts | 251° |
| 2026-05-07 10:19 | 47.88478 | 9.81369 | 27569 ft | 466 kts | 251° |
| 2026-05-07 10:19 | 47.87350 | 9.76842 | 27885 ft | 468 kts | 251° |
| 2026-05-07 10:20 | 47.86218 | 9.72279 | 28177 ft | 471 kts | 251° |
| 2026-05-07 10:20 | 47.85104 | 9.67698 | 28437 ft | 473 kts | 253° |
| 2026-05-07 10:20 | 47.84124 | 9.63036 | 28829 ft | 473 kts | 256° |
| 2026-05-07 10:20 | 47.83299 | 9.58255 | 29336 ft | 471 kts | 259° |
| 2026-05-07 10:21 | 47.82655 | 9.53519 | 29825 ft | 469 kts | 261° |
| 2026-05-07 10:21 | 47.82070 | 9.48700 | 30274 ft | 467 kts | 261° |
| 2026-05-07 10:21 | 47.81502 | 9.43950 | 30673 ft | 466 kts | 261° |
| 2026-05-07 10:21 | 47.80939 | 9.39244 | 31101 ft | 464 kts | 261° |
| 2026-05-07 10:22 | 47.80371 | 9.34535 | 31512 ft | 461 kts | 261° |
| 2026-05-07 10:22 | 47.79799 | 9.29808 | 31888 ft | 460 kts | 261° |
| 2026-05-07 10:22 | 47.79228 | 9.25134 | 32151 ft | 462 kts | 260° |
| 2026-05-07 10:22 | 47.78647 | 9.20394 | 32379 ft | 464 kts | 260° |
| 2026-05-07 10:23 | 47.78063 | 9.15653 | 32651 ft | 465 kts | 260° |
| 2026-05-07 10:23 | 47.77481 | 9.10945 | 32945 ft | 465 kts | 260° |
| 2026-05-07 10:23 | 47.76889 | 9.06177 | 33025 ft | 466 kts | 260° |
| 2026-05-07 10:24 | 47.75710 | 8.96736 | 33034 ft | 466 kts | 260° |
| 2026-05-07 10:24 | 47.74515 | 8.87227 | 33036 ft | 466 kts | 259° |
| 2026-05-07 10:25 | 47.73315 | 8.77742 | 33038 ft | 466 kts | 260° |
| 2026-05-07 10:25 | 47.72116 | 8.68314 | 33044 ft | 466 kts | 259° |
| 2026-05-07 10:26 | 47.70893 | 8.58841 | 33043 ft | 466 kts | 258° |
| 2026-05-07 10:26 | 47.69162 | 8.49531 | 33043 ft | 467 kts | 251° |
| 2026-05-07 10:27 | 47.66692 | 8.40686 | 33041 ft | 467 kts | 245° |
| 2026-05-07 10:27 | 47.63482 | 8.32290 | 33055 ft | 468 kts | 238° |
| 2026-05-07 10:28 | 47.59767 | 8.24345 | 33035 ft | 468 kts | 236° |
| 2026-05-07 10:28 | 47.56032 | 8.16453 | 33036 ft | 468 kts | 236° |
| 2026-05-07 10:29 | 47.52282 | 8.08549 | 33056 ft | 468 kts | 236° |
| 2026-05-07 10:29 | 47.48522 | 8.00646 | 33030 ft | 468 kts | 236° |
| 2026-05-07 10:30 | 47.42905 | 7.88878 | 33050 ft | 467 kts | 236° |
| 2026-05-07 10:30 | 47.39146 | 7.81030 | 33051 ft | 468 kts | 236° |
| 2026-05-07 10:31 | 47.35377 | 7.73184 | 33037 ft | 468 kts | 236° |
| 2026-05-07 10:31 | 47.31598 | 7.65344 | 33038 ft | 467 kts | 236° |
| 2026-05-07 10:32 | 47.27650 | 7.57763 | 33042 ft | 467 kts | 233° |
| 2026-05-07 10:32 | 47.23612 | 7.50247 | 33030 ft | 467 kts | 233° |
| 2026-05-07 10:33 | 47.19588 | 7.42775 | 33029 ft | 467 kts | 233° |
| 2026-05-07 10:33 | 47.15522 | 7.35256 | 33030 ft | 467 kts | 233° |
| 2026-05-07 10:34 | 47.11496 | 7.27828 | 33028 ft | 466 kts | 233° |
| 2026-05-07 10:34 | 47.07441 | 7.20360 | 33034 ft | 466 kts | 233° |
| 2026-05-07 10:35 | 47.03407 | 7.12957 | 33044 ft | 466 kts | 233° |
| 2026-05-07 10:35 | 46.99363 | 7.05556 | 33031 ft | 466 kts | 233° |
| 2026-05-07 10:36 | 46.95286 | 6.98115 | 33021 ft | 465 kts | 233° |
| 2026-05-07 10:36 | 46.91253 | 6.90770 | 33027 ft | 465 kts | 233° |
| 2026-05-07 10:37 | 46.87189 | 6.83395 | 33029 ft | 465 kts | 233° |
| 2026-05-07 10:37 | 46.83117 | 6.76024 | 33030 ft | 465 kts | 233° |
| 2026-05-07 10:38 | 46.79057 | 6.68692 | 33029 ft | 465 kts | 233° |
| 2026-05-07 10:38 | 46.74990 | 6.61373 | 33022 ft | 462 kts | 233° |
| 2026-05-07 10:39 | 46.70843 | 6.54210 | 33026 ft | 462 kts | 230° |
| 2026-05-07 10:39 | 46.66609 | 6.47229 | 33028 ft | 462 kts | 231° |
| 2026-05-07 10:40 | 46.62332 | 6.40187 | 33026 ft | 462 kts | 230° |
| 2026-05-07 10:40 | 46.58069 | 6.33189 | 33027 ft | 462 kts | 230° |
| 2026-05-07 10:41 | 46.53801 | 6.26201 | 33021 ft | 462 kts | 230° |
| 2026-05-07 10:41 | 46.49545 | 6.19253 | 33020 ft | 462 kts | 230° |
| 2026-05-07 10:42 | 46.45268 | 6.12287 | 33017 ft | 462 kts | 230° |
| 2026-05-07 10:42 | 46.40980 | 6.05322 | 33020 ft | 462 kts | 230° |
| 2026-05-07 10:43 | 46.36732 | 5.98447 | 33016 ft | 459 kts | 231° |
| 2026-05-07 10:43 | 46.32473 | 5.91543 | 33023 ft | 459 kts | 231° |
| 2026-05-07 10:44 | 46.28524 | 5.84304 | 33023 ft | 457 kts | 237° |
| 2026-05-07 10:44 | 46.24920 | 5.76723 | 33022 ft | 456 kts | 238° |
| 2026-05-07 10:45 | 46.21336 | 5.69186 | 33022 ft | 456 kts | 238° |
| 2026-05-07 10:45 | 46.17743 | 5.61640 | 33018 ft | 455 kts | 238° |
| 2026-05-07 10:46 | 46.14156 | 5.54128 | 33035 ft | 454 kts | 238° |
| 2026-05-07 10:46 | 46.10571 | 5.46646 | 33037 ft | 454 kts | 238° |
| 2026-05-07 10:47 | 46.06960 | 5.39128 | 33019 ft | 454 kts | 238° |
| 2026-05-07 10:47 | 46.03374 | 5.31680 | 33020 ft | 454 kts | 238° |
| 2026-05-07 10:48 | 45.99768 | 5.24209 | 33032 ft | 453 kts | 238° |
| 2026-05-07 10:48 | 45.96168 | 5.16769 | 33032 ft | 453 kts | 238° |
| 2026-05-07 10:49 | 45.92572 | 5.09351 | 33028 ft | 453 kts | 238° |
| 2026-05-07 10:49 | 45.88966 | 5.01937 | 33030 ft | 453 kts | 238° |
| 2026-05-07 10:50 | 45.85356 | 4.94536 | 33036 ft | 452 kts | 238° |
| 2026-05-07 10:50 | 45.81743 | 4.87147 | 33054 ft | 451 kts | 237° |
| 2026-05-07 10:51 | 45.78156 | 4.79831 | 33055 ft | 451 kts | 237° |
| 2026-05-07 10:51 | 45.74526 | 4.72444 | 33052 ft | 451 kts | 237° |
| 2026-05-07 10:52 | 45.70905 | 4.65087 | 33037 ft | 451 kts | 237° |
| 2026-05-07 10:52 | 45.67304 | 4.57803 | 33035 ft | 450 kts | 237° |
| 2026-05-07 10:53 | 45.63676 | 4.50481 | 33047 ft | 449 kts | 237° |
| 2026-05-07 10:53 | 45.60052 | 4.43186 | 33052 ft | 449 kts | 237° |
| 2026-05-07 10:54 | 45.56427 | 4.35904 | 33059 ft | 450 kts | 237° |
| 2026-05-07 10:54 | 45.52812 | 4.28661 | 33058 ft | 449 kts | 237° |
| 2026-05-07 10:55 | 45.49182 | 4.21397 | 33048 ft | 448 kts | 236° |
| 2026-05-07 10:55 | 45.45556 | 4.14172 | 33050 ft | 448 kts | 236° |
| 2026-05-07 10:56 | 45.41927 | 4.06958 | 33043 ft | 447 kts | 236° |
| 2026-05-07 10:56 | 45.38325 | 3.99756 | 33033 ft | 447 kts | 238° |
| 2026-05-07 10:57 | 45.35130 | 3.92158 | 33020 ft | 446 kts | 243° |
| 2026-05-07 10:57 | 45.32425 | 3.84204 | 33012 ft | 445 kts | 246° |
| 2026-05-07 10:58 | 45.29809 | 3.76306 | 33018 ft | 441 kts | 246° |
| 2026-05-07 10:58 | 45.27183 | 3.68402 | 33013 ft | 441 kts | 246° |
| 2026-05-07 10:59 | 45.24567 | 3.60555 | 33016 ft | 440 kts | 246° |
| 2026-05-07 10:59 | 45.21933 | 3.52679 | 33018 ft | 440 kts | 246° |
| 2026-05-07 11:00 | 45.19306 | 3.44848 | 33016 ft | 440 kts | 245° |
| 2026-05-07 11:00 | 45.16672 | 3.37018 | 33015 ft | 440 kts | 246° |
| 2026-05-07 11:01 | 45.14031 | 3.29190 | 32991 ft | 440 kts | 245° |
| 2026-05-07 11:01 | 45.11388 | 3.21377 | 33011 ft | 440 kts | 245° |
| 2026-05-07 11:02 | 45.08727 | 3.13540 | 33012 ft | 440 kts | 245° |
| 2026-05-07 11:02 | 45.06043 | 3.05658 | 33026 ft | 440 kts | 245° |
| 2026-05-07 11:03 | 45.03394 | 2.97896 | 33022 ft | 440 kts | 245° |
| 2026-05-07 11:03 | 45.00710 | 2.90057 | 33024 ft | 440 kts | 245° |
| 2026-05-07 11:04 | 44.98047 | 2.82304 | 33022 ft | 441 kts | 245° |
| 2026-05-07 11:04 | 44.95355 | 2.74484 | 33017 ft | 441 kts | 245° |
| 2026-05-07 11:05 | 44.92665 | 2.66695 | 33032 ft | 441 kts | 244° |
| 2026-05-07 11:05 | 44.89966 | 2.58902 | 33031 ft | 442 kts | 244° |
| 2026-05-07 11:06 | 44.87712 | 2.52418 | 33029 ft | 442 kts | 244° |
| 2026-05-07 11:06 | 44.84993 | 2.44615 | 33027 ft | 442 kts | 244° |
| 2026-05-07 11:07 | 44.82266 | 2.36810 | 33027 ft | 442 kts | 244° |
| 2026-05-07 11:07 | 44.79538 | 2.29020 | 33027 ft | 443 kts | 244° |
| 2026-05-07 11:08 | 44.76806 | 2.21237 | 33020 ft | 444 kts | 244° |
| 2026-05-07 11:08 | 44.74059 | 2.13446 | 33018 ft | 444 kts | 244° |
| 2026-05-07 11:09 | 44.71308 | 2.05661 | 33017 ft | 444 kts | 244° |
| 2026-05-07 11:09 | 44.68562 | 1.97912 | 33016 ft | 444 kts | 244° |
| 2026-05-07 11:10 | 44.65793 | 1.90120 | 33020 ft | 445 kts | 243° |
| 2026-05-07 11:10 | 44.63022 | 1.82340 | 33018 ft | 446 kts | 243° |
| 2026-05-07 11:11 | 44.60227 | 1.74524 | 33014 ft | 446 kts | 243° |
| 2026-05-07 11:11 | 44.57448 | 1.66768 | 33010 ft | 446 kts | 243° |
| 2026-05-07 11:12 | 44.54654 | 1.58996 | 33018 ft | 446 kts | 243° |
| 2026-05-07 11:12 | 44.51838 | 1.51185 | 33023 ft | 447 kts | 243° |
| 2026-05-07 11:13 | 44.49040 | 1.43442 | 33011 ft | 448 kts | 243° |
| 2026-05-07 11:13 | 44.46217 | 1.35656 | 33012 ft | 448 kts | 243° |
| 2026-05-07 11:14 | 44.43389 | 1.27877 | 33009 ft | 448 kts | 243° |
| 2026-05-07 11:14 | 44.40558 | 1.20108 | 33004 ft | 448 kts | 242° |
| 2026-05-07 11:15 | 44.37723 | 1.12350 | 33013 ft | 449 kts | 242° |
| 2026-05-07 11:15 | 44.34869 | 1.04563 | 33013 ft | 449 kts | 242° |
| 2026-05-07 11:16 | 44.32004 | 0.96771 | 33009 ft | 449 kts | 242° |
| 2026-05-07 11:16 | 44.29153 | 0.89005 | 33016 ft | 450 kts | 243° |
| 2026-05-07 11:17 | 44.26454 | 0.81106 | 33022 ft | 450 kts | 244° |
| 2026-05-07 11:17 | 44.23777 | 0.73189 | 33034 ft | 450 kts | 244° |
| 2026-05-07 11:18 | 44.21092 | 0.65303 | 33023 ft | 451 kts | 244° |
| 2026-05-07 11:18 | 44.18393 | 0.57421 | 33030 ft | 451 kts | 243° |
| 2026-05-07 11:19 | 44.15685 | 0.49538 | 33027 ft | 451 kts | 243° |
| 2026-05-07 11:19 | 44.12965 | 0.41649 | 33028 ft | 451 kts | 243° |
| 2026-05-07 11:20 | 44.10228 | 0.33735 | 33027 ft | 452 kts | 243° |
| 2026-05-07 11:20 | 44.07490 | 0.25840 | 33018 ft | 452 kts | 243° |
| 2026-05-07 11:21 | 44.04762 | 0.17997 | 33008 ft | 452 kts | 243° |
| 2026-05-07 11:21 | 44.02019 | 0.10133 | 32999 ft | 452 kts | 243° |
| 2026-05-07 11:22 | 43.99258 | 0.02241 | 33007 ft | 452 kts | 243° |
| 2026-05-07 11:22 | 43.96495 | -0.05638 | 33007 ft | 453 kts | 243° |
| 2026-05-07 11:23 | 43.93737 | -0.13473 | 33013 ft | 453 kts | 243° |
| 2026-05-07 11:23 | 43.90953 | -0.21361 | 33017 ft | 453 kts | 243° |
| 2026-05-07 11:24 | 43.88176 | -0.29208 | 33024 ft | 453 kts | 243° |
| 2026-05-07 11:24 | 43.85389 | -0.37060 | 33028 ft | 453 kts | 243° |
| 2026-05-07 11:25 | 43.82599 | -0.44900 | 33018 ft | 453 kts | 242° |
| 2026-05-07 11:25 | 43.79805 | -0.52728 | 33022 ft | 453 kts | 242° |
| 2026-05-07 11:26 | 43.77013 | -0.60528 | 33022 ft | 453 kts | 242° |
| 2026-05-07 11:26 | 43.74205 | -0.68350 | 33014 ft | 453 kts | 242° |
| 2026-05-07 11:27 | 43.71390 | -0.76170 | 33006 ft | 454 kts | 242° |
| 2026-05-07 11:27 | 43.68571 | -0.83986 | 33000 ft | 454 kts | 242° |
| 2026-05-07 11:28 | 43.65745 | -0.91787 | 32991 ft | 454 kts | 242° |
| 2026-05-07 11:28 | 43.62913 | -0.99586 | 33001 ft | 454 kts | 242° |
| 2026-05-07 11:29 | 43.60080 | -1.07368 | 33001 ft | 454 kts | 242° |
| 2026-05-07 11:29 | 43.57233 | -1.15166 | 32993 ft | 454 kts | 242° |
| 2026-05-07 11:30 | 43.54401 | -1.22911 | 32980 ft | 453 kts | 241° |
| 2026-05-07 11:30 | 43.51549 | -1.30675 | 32980 ft | 453 kts | 241° |
| 2026-05-07 11:31 | 43.48685 | -1.38453 | 32975 ft | 453 kts | 241° |
| 2026-05-07 11:31 | 43.45830 | -1.46188 | 32975 ft | 453 kts | 241° |
| 2026-05-07 11:32 | 43.41544 | -1.57773 | 32972 ft | 453 kts | 241° |
| 2026-05-07 11:33 | 43.38679 | -1.65479 | 32973 ft | 453 kts | 241° |
| 2026-05-07 11:33 | 43.35724 | -1.73179 | 32974 ft | 452 kts | 238° |
| 2026-05-07 11:34 | 43.32353 | -1.80462 | 32977 ft | 452 kts | 234° |
| 2026-05-07 11:34 | 43.28692 | -1.87411 | 32977 ft | 451 kts | 231° |
| 2026-05-07 11:35 | 43.24904 | -1.94293 | 32968 ft | 450 kts | 231° |
| 2026-05-07 11:35 | 43.21126 | -2.01137 | 32958 ft | 450 kts | 231° |
| 2026-05-07 11:36 | 43.17352 | -2.07950 | 32959 ft | 450 kts | 231° |
| 2026-05-07 11:36 | 43.13538 | -2.14816 | 32951 ft | 450 kts | 231° |
| 2026-05-07 11:37 | 43.09773 | -2.21582 | 32949 ft | 449 kts | 231° |
| 2026-05-07 11:37 | 43.05976 | -2.28389 | 32954 ft | 450 kts | 231° |
| 2026-05-07 11:38 | 43.02173 | -2.35194 | 32951 ft | 450 kts | 230° |
| 2026-05-07 11:38 | 42.98353 | -2.42011 | 32937 ft | 451 kts | 230° |
| 2026-05-07 11:39 | 42.94548 | -2.48786 | 32934 ft | 450 kts | 230° |
| 2026-05-07 11:39 | 42.90719 | -2.55588 | 32943 ft | 451 kts | 230° |
| 2026-05-07 11:40 | 42.86890 | -2.62375 | 32976 ft | 451 kts | 230° |
| 2026-05-07 11:40 | 42.83071 | -2.69129 | 32982 ft | 451 kts | 230° |
| 2026-05-07 11:41 | 42.79227 | -2.75916 | 32975 ft | 452 kts | 230° |
| 2026-05-07 11:41 | 42.75382 | -2.82685 | 32941 ft | 452 kts | 230° |
| 2026-05-07 11:42 | 42.71545 | -2.89464 | 32947 ft | 452 kts | 231° |
| 2026-05-07 11:42 | 42.67746 | -2.96299 | 32948 ft | 453 kts | 231° |
| 2026-05-07 11:43 | 42.63963 | -3.03100 | 32948 ft | 453 kts | 231° |
| 2026-05-07 11:43 | 42.60161 | -3.09913 | 32950 ft | 452 kts | 231° |
| 2026-05-07 11:44 | 42.56357 | -3.16713 | 32935 ft | 451 kts | 230° |
| 2026-05-07 11:44 | 42.52552 | -3.23499 | 32942 ft | 452 kts | 230° |
| 2026-05-07 11:45 | 42.48744 | -3.30272 | 32944 ft | 452 kts | 230° |
| 2026-05-07 11:45 | 42.44931 | -3.37040 | 32943 ft | 452 kts | 230° |
| 2026-05-07 11:46 | 42.41100 | -3.43822 | 32968 ft | 452 kts | 230° |
| 2026-05-07 11:46 | 42.37289 | -3.50554 | 32954 ft | 451 kts | 230° |
| 2026-05-07 11:47 | 42.33466 | -3.57295 | 32944 ft | 453 kts | 230° |
| 2026-05-07 11:47 | 42.29605 | -3.64086 | 32946 ft | 454 kts | 230° |
| 2026-05-07 11:48 | 42.25771 | -3.70815 | 32944 ft | 454 kts | 230° |
| 2026-05-07 11:48 | 42.21914 | -3.77569 | 32926 ft | 454 kts | 230° |
| 2026-05-07 11:49 | 42.18042 | -3.84332 | 32938 ft | 455 kts | 230° |
| 2026-05-07 11:49 | 42.14168 | -3.91087 | 32934 ft | 456 kts | 230° |
| 2026-05-07 11:50 | 42.10272 | -3.97871 | 32926 ft | 457 kts | 231° |
| 2026-05-07 11:50 | 42.06383 | -4.04618 | 32930 ft | 457 kts | 230° |
| 2026-05-07 11:51 | 42.02218 | -4.11061 | 32925 ft | 456 kts | 225° |
| 2026-05-07 11:51 | 41.97605 | -4.16905 | 32924 ft | 455 kts | 220° |
| 2026-05-07 11:52 | 41.92799 | -4.22531 | 32922 ft | 455 kts | 220° |
| 2026-05-07 11:52 | 41.88021 | -4.28121 | 32922 ft | 457 kts | 220° |
| 2026-05-07 11:53 | 41.83256 | -4.33683 | 32922 ft | 457 kts | 220° |
| 2026-05-07 11:53 | 41.78421 | -4.39312 | 32922 ft | 457 kts | 220° |
| 2026-05-07 11:54 | 41.73649 | -4.44856 | 32921 ft | 457 kts | 220° |
| 2026-05-07 11:54 | 41.68820 | -4.50453 | 32919 ft | 457 kts | 220° |
| 2026-05-07 11:55 | 41.64027 | -4.55994 | 32919 ft | 458 kts | 220° |
| 2026-05-07 11:55 | 41.59156 | -4.61607 | 32931 ft | 462 kts | 221° |
| 2026-05-07 11:56 | 41.54298 | -4.67209 | 32921 ft | 463 kts | 221° |
| 2026-05-07 11:56 | 41.49426 | -4.72813 | 32922 ft | 463 kts | 221° |
| 2026-05-07 11:57 | 41.44543 | -4.78414 | 32913 ft | 463 kts | 221° |
| 2026-05-07 11:57 | 41.40477 | -4.83069 | 32918 ft | 464 kts | 221° |
| 2026-05-07 11:58 | 41.35573 | -4.88677 | 32916 ft | 464 kts | 221° |
| 2026-05-07 11:58 | 41.30674 | -4.94265 | 32913 ft | 464 kts | 221° |
| 2026-05-07 11:59 | 41.25726 | -4.99886 | 32913 ft | 467 kts | 221° |
| 2026-05-07 11:59 | 41.20811 | -5.05469 | 32908 ft | 468 kts | 221° |
| 2026-05-07 12:00 | 41.15854 | -5.11093 | 32910 ft | 468 kts | 222° |
| 2026-05-07 12:00 | 41.10903 | -5.16697 | 32913 ft | 468 kts | 221° |
| 2026-05-07 12:01 | 41.05918 | -5.22326 | 32916 ft | 468 kts | 221° |
| 2026-05-07 12:01 | 41.00962 | -5.27911 | 32910 ft | 468 kts | 221° |
| 2026-05-07 12:02 | 40.95988 | -5.33498 | 32906 ft | 469 kts | 222° |
| 2026-05-07 12:02 | 40.91008 | -5.39075 | 32915 ft | 473 kts | 223° |
| 2026-05-07 12:03 | 40.85956 | -5.44749 | 32921 ft | 474 kts | 223° |
| 2026-05-07 12:03 | 40.80929 | -5.50374 | 32916 ft | 474 kts | 223° |
| 2026-05-07 12:04 | 40.75894 | -5.55984 | 32897 ft | 474 kts | 224° |
| 2026-05-07 12:04 | 40.70847 | -5.61599 | 32903 ft | 474 kts | 224° |
| 2026-05-07 12:05 | 40.65803 | -5.67205 | 32908 ft | 474 kts | 224° |
| 2026-05-07 12:05 | 40.60743 | -5.72807 | 32895 ft | 475 kts | 224° |
| 2026-05-07 12:06 | 40.55686 | -5.78395 | 32904 ft | 476 kts | 224° |
| 2026-05-07 12:06 | 40.50638 | -5.83974 | 32907 ft | 476 kts | 224° |
| 2026-05-07 12:07 | 40.45540 | -5.89592 | 32912 ft | 476 kts | 224° |
| 2026-05-07 12:07 | 40.40487 | -5.95147 | 32906 ft | 476 kts | 224° |
| 2026-05-07 12:08 | 40.35403 | -6.00724 | 32900 ft | 476 kts | 224° |
| 2026-05-07 12:08 | 40.30315 | -6.06288 | 32897 ft | 476 kts | 224° |
| 2026-05-07 12:09 | 40.25227 | -6.11828 | 32883 ft | 475 kts | 225° |
| 2026-05-07 12:09 | 40.20150 | -6.17362 | 32897 ft | 474 kts | 225° |
| 2026-05-07 12:10 | 40.15089 | -6.22874 | 32902 ft | 474 kts | 225° |
| 2026-05-07 12:10 | 40.10004 | -6.28399 | 32900 ft | 474 kts | 225° |
| 2026-05-07 12:11 | 40.04953 | -6.33861 | 32887 ft | 473 kts | 226° |
| 2026-05-07 12:11 | 39.99870 | -6.39361 | 32894 ft | 472 kts | 226° |
| 2026-05-07 12:12 | 39.94822 | -6.44816 | 32895 ft | 472 kts | 226° |
| 2026-05-07 12:12 | 39.89765 | -6.50258 | 32892 ft | 472 kts | 226° |
| 2026-05-07 12:13 | 39.84704 | -6.55702 | 32894 ft | 472 kts | 226° |
| 2026-05-07 12:13 | 39.79659 | -6.61108 | 32891 ft | 471 kts | 227° |
| 2026-05-07 12:14 | 39.74608 | -6.66525 | 32888 ft | 471 kts | 227° |
| 2026-05-07 12:14 | 39.69530 | -6.71957 | 32889 ft | 471 kts | 227° |
| 2026-05-07 12:15 | 39.64471 | -6.77354 | 32890 ft | 471 kts | 227° |
| 2026-05-07 12:15 | 39.59408 | -6.82742 | 32869 ft | 470 kts | 227° |
| 2026-05-07 12:16 | 39.54393 | -6.88061 | 32873 ft | 467 kts | 227° |
| 2026-05-07 12:16 | 39.49362 | -6.93406 | 32884 ft | 466 kts | 228° |
| 2026-05-07 12:17 | 39.44333 | -6.98736 | 32881 ft | 466 kts | 227° |
| 2026-05-07 12:17 | 39.39339 | -7.04016 | 32886 ft | 466 kts | 227° |
| 2026-05-07 12:18 | 39.34327 | -7.09303 | 32876 ft | 464 kts | 227° |
| 2026-05-07 12:18 | 39.29347 | -7.14595 | 32885 ft | 461 kts | 230° |
| 2026-05-07 12:19 | 39.24803 | -7.20340 | 32887 ft | 453 kts | 236° |
| 2026-05-07 12:19 | 39.20897 | -7.26618 | 32877 ft | 444 kts | 242° |
| 2026-05-07 12:20 | 39.17612 | -7.33348 | 32889 ft | 438 kts | 248° |
| 2026-05-07 12:20 | 39.14846 | -7.40268 | 32895 ft | 437 kts | 249° |
| 2026-05-07 12:21 | 39.12088 | -7.47269 | 32895 ft | 437 kts | 249° |
| 2026-05-07 12:21 | 39.09336 | -7.54238 | 32886 ft | 436 kts | 249° |
| 2026-05-07 12:22 | 39.06591 | -7.61166 | 32878 ft | 436 kts | 248° |
| 2026-05-07 12:22 | 39.03822 | -7.68143 | 32893 ft | 435 kts | 248° |
| 2026-05-07 12:23 | 39.01060 | -7.75082 | 32897 ft | 435 kts | 248° |
| 2026-05-07 12:23 | 38.98300 | -7.82009 | 32897 ft | 435 kts | 248° |
| 2026-05-07 12:24 | 38.95536 | -7.88927 | 32901 ft | 435 kts | 248° |
| 2026-05-07 12:24 | 38.92755 | -7.95860 | 32902 ft | 435 kts | 248° |
| 2026-05-07 12:25 | 38.89972 | -8.02773 | 32897 ft | 435 kts | 248° |
| 2026-05-07 12:25 | 38.87184 | -8.09692 | 32901 ft | 435 kts | 248° |
| 2026-05-07 12:26 | 38.84394 | -8.16603 | 32898 ft | 435 kts | 248° |
| 2026-05-07 12:26 | 38.81602 | -8.23509 | 32893 ft | 434 kts | 248° |
| 2026-05-07 12:27 | 38.78813 | -8.30386 | 32899 ft | 434 kts | 248° |
| 2026-05-07 12:27 | 38.76039 | -8.37218 | 32891 ft | 433 kts | 247° |
| 2026-05-07 12:28 | 38.73253 | -8.44062 | 32905 ft | 433 kts | 247° |
| 2026-05-07 12:28 | 38.70463 | -8.50898 | 32915 ft | 433 kts | 247° |
| 2026-05-07 12:29 | 38.67665 | -8.57739 | 32911 ft | 433 kts | 247° |
| 2026-05-07 12:29 | 38.64851 | -8.64595 | 32916 ft | 433 kts | 247° |
| 2026-05-07 12:30 | 38.62030 | -8.71417 | 32916 ft | 433 kts | 247° |
| 2026-05-07 12:30 | 38.59233 | -8.78180 | 32923 ft | 432 kts | 246° |
| 2026-05-07 12:31 | 38.56412 | -8.84979 | 32933 ft | 432 kts | 246° |
| 2026-05-07 12:31 | 38.53587 | -8.91775 | 32923 ft | 432 kts | 246° |
| 2026-05-07 12:32 | 38.50767 | -8.98550 | 32935 ft | 431 kts | 246° |
| 2026-05-07 12:32 | 38.47929 | -9.05352 | 32938 ft | 431 kts | 246° |
| 2026-05-07 12:33 | 38.43577 | -9.15373 | 32943 ft | 433 kts | 242° |
| 2026-05-07 12:33 | 38.40127 | -9.21735 | 32944 ft | 437 kts | 237° |
| 2026-05-07 12:34 | 38.36249 | -9.27726 | 32950 ft | 438 kts | 235° |
| 2026-05-07 12:34 | 38.32307 | -9.33658 | 32953 ft | 438 kts | 235° |
| 2026-05-07 12:35 | 38.28352 | -9.39590 | 32953 ft | 438 kts | 235° |
| 2026-05-07 12:35 | 38.24403 | -9.45496 | 32947 ft | 437 kts | 234° |
| 2026-05-07 12:36 | 38.20488 | -9.51339 | 32946 ft | 436 kts | 234° |
| 2026-05-07 12:36 | 38.16527 | -9.57235 | 32964 ft | 435 kts | 234° |
| 2026-05-07 12:37 | 38.12610 | -9.63054 | 32958 ft | 435 kts | 234° |
| 2026-05-07 12:37 | 38.08660 | -9.68915 | 32959 ft | 435 kts | 234° |
| 2026-05-07 12:38 | 38.04732 | -9.74735 | 32963 ft | 435 kts | 234° |
| 2026-05-07 12:38 | 38.00765 | -9.80598 | 32963 ft | 435 kts | 234° |
| 2026-05-07 12:39 | 37.96811 | -9.86416 | 32966 ft | 435 kts | 233° |
| 2026-05-07 12:39 | 37.92858 | -9.92206 | 32961 ft | 435 kts | 233° |
| 2026-05-07 12:40 | 37.88897 | -9.98001 | 32966 ft | 435 kts | 233° |
| 2026-05-07 12:40 | 37.84955 | -10.03763 | 32967 ft | 435 kts | 233° |
| 2026-05-07 12:41 | 37.80979 | -10.09566 | 32968 ft | 435 kts | 233° |
| 2026-05-07 12:41 | 37.77015 | -10.15341 | 32970 ft | 435 kts | 233° |
| 2026-05-07 12:42 | 37.73065 | -10.21087 | 32965 ft | 434 kts | 233° |
| 2026-05-07 12:42 | 37.69111 | -10.26832 | 32968 ft | 433 kts | 233° |
| 2026-05-07 12:43 | 37.65146 | -10.32575 | 32971 ft | 433 kts | 233° |
| 2026-05-07 12:43 | 37.61176 | -10.38317 | 32976 ft | 433 kts | 233° |
| 2026-05-07 12:44 | 37.57208 | -10.44047 | 32973 ft | 433 kts | 233° |
| 2026-05-07 12:44 | 37.53235 | -10.49774 | 32975 ft | 433 kts | 233° |
| 2026-05-07 12:45 | 37.49279 | -10.55467 | 32973 ft | 433 kts | 233° |
| 2026-05-07 12:45 | 37.45310 | -10.61175 | 32979 ft | 432 kts | 232° |
| 2026-05-07 12:46 | 37.41340 | -10.66865 | 32980 ft | 431 kts | 232° |
| 2026-05-07 12:46 | 37.37372 | -10.72545 | 32980 ft | 431 kts | 232° |
| 2026-05-07 12:47 | 37.33421 | -10.78191 | 32980 ft | 432 kts | 232° |
| 2026-05-07 12:47 | 37.29444 | -10.83865 | 32987 ft | 432 kts | 232° |
| 2026-05-07 12:48 | 37.25463 | -10.89533 | 32988 ft | 432 kts | 232° |
| 2026-05-07 12:48 | 37.21490 | -10.95183 | 32993 ft | 431 kts | 232° |
| 2026-05-07 12:49 | 37.18188 | -10.99873 | 32977 ft | 431 kts | 232° |
| 2026-05-07 12:49 | 37.14197 | -11.05526 | 32987 ft | 430 kts | 232° |
| 2026-05-07 12:50 | 37.10253 | -11.11105 | 32991 ft | 430 kts | 232° |
| 2026-05-07 12:50 | 37.06260 | -11.16744 | 32991 ft | 431 kts | 232° |
| 2026-05-07 12:51 | 37.02281 | -11.22354 | 32991 ft | 431 kts | 232° |
| 2026-05-07 12:51 | 36.98305 | -11.27950 | 32991 ft | 431 kts | 232° |
| 2026-05-07 12:52 | 36.94327 | -11.33544 | 32991 ft | 430 kts | 231° |
| 2026-05-07 12:52 | 36.90349 | -11.39123 | 32986 ft | 430 kts | 231° |
| 2026-05-07 12:53 | 36.86370 | -11.44693 | 32992 ft | 430 kts | 231° |
| 2026-05-07 12:53 | 36.82370 | -11.50284 | 32993 ft | 430 kts | 231° |
| 2026-05-07 12:54 | 36.78379 | -11.55855 | 32996 ft | 430 kts | 231° |
| 2026-05-07 12:54 | 36.74383 | -11.61421 | 32999 ft | 430 kts | 231° |
| 2026-05-07 12:55 | 36.70406 | -11.66953 | 32997 ft | 430 kts | 231° |
| 2026-05-07 12:55 | 36.66404 | -11.72510 | 32997 ft | 430 kts | 231° |
| 2026-05-07 12:56 | 36.62398 | -11.78063 | 32993 ft | 430 kts | 231° |
| 2026-05-07 12:56 | 36.58413 | -11.83578 | 32998 ft | 430 kts | 231° |
| 2026-05-07 12:57 | 36.54411 | -11.89107 | 32999 ft | 430 kts | 231° |
| 2026-05-07 12:57 | 36.50410 | -11.94626 | 33002 ft | 430 kts | 231° |
| 2026-05-07 12:58 | 36.46381 | -12.00175 | 33002 ft | 430 kts | 231° |
| 2026-05-07 12:58 | 36.42386 | -12.05670 | 33008 ft | 429 kts | 231° |
| 2026-05-07 12:59 | 36.38395 | -12.11151 | 33005 ft | 426 kts | 231° |
| 2026-05-07 12:59 | 36.34413 | -12.16601 | 32996 ft | 426 kts | 231° |
| 2026-05-07 13:00 | 36.30413 | -12.22073 | 33007 ft | 426 kts | 231° |
| 2026-05-07 13:00 | 36.26435 | -12.27507 | 33010 ft | 426 kts | 231° |
| 2026-05-07 13:01 | 36.22449 | -12.32943 | 33008 ft | 426 kts | 231° |
| 2026-05-07 13:01 | 36.18462 | -12.38372 | 33007 ft | 426 kts | 231° |
| 2026-05-07 13:02 | 36.14490 | -12.43781 | 33015 ft | 424 kts | 230° |
| 2026-05-07 13:02 | 36.10519 | -12.49170 | 33012 ft | 423 kts | 230° |
| 2026-05-07 13:03 | 36.06541 | -12.54554 | 32997 ft | 424 kts | 230° |
| 2026-05-07 13:03 | 36.02567 | -12.59922 | 33008 ft | 424 kts | 230° |
| 2026-05-07 13:04 | 35.98581 | -12.65298 | 33009 ft | 424 kts | 230° |
| 2026-05-07 13:04 | 35.94592 | -12.70672 | 33010 ft | 424 kts | 230° |
| 2026-05-07 13:05 | 35.90621 | -12.76015 | 33011 ft | 424 kts | 230° |
| 2026-05-07 13:05 | 35.86641 | -12.81369 | 33017 ft | 423 kts | 229° |
| 2026-05-07 13:06 | 35.82652 | -12.86718 | 33013 ft | 423 kts | 229° |
| 2026-05-07 13:06 | 35.78661 | -12.92061 | 32997 ft | 424 kts | 229° |
| 2026-05-07 13:07 | 35.74662 | -12.97409 | 33012 ft | 424 kts | 229° |
| 2026-05-07 13:07 | 35.70660 | -13.02753 | 33016 ft | 424 kts | 229° |
| 2026-05-07 13:08 | 35.66662 | -13.08082 | 33012 ft | 424 kts | 229° |
| 2026-05-07 13:08 | 35.62665 | -13.13402 | 33021 ft | 424 kts | 229° |
| 2026-05-07 13:09 | 35.58656 | -13.18737 | 33012 ft | 423 kts | 229° |
| 2026-05-07 13:09 | 35.54657 | -13.24040 | 33019 ft | 423 kts | 229° |
| 2026-05-07 13:10 | 35.50658 | -13.29335 | 33005 ft | 423 kts | 229° |
| 2026-05-07 13:10 | 35.46639 | -13.34649 | 33011 ft | 424 kts | 229° |
| 2026-05-07 13:11 | 35.42614 | -13.39965 | 33015 ft | 424 kts | 229° |
| 2026-05-07 13:11 | 35.38615 | -13.45238 | 33015 ft | 424 kts | 229° |
| 2026-05-07 13:12 | 35.34600 | -13.50524 | 33027 ft | 424 kts | 228° |
| 2026-05-07 13:12 | 35.30577 | -13.55816 | 33018 ft | 424 kts | 228° |
| 2026-05-07 13:13 | 35.26551 | -13.61096 | 33020 ft | 424 kts | 228° |
| 2026-05-07 13:13 | 35.22520 | -13.66376 | 33018 ft | 424 kts | 228° |
| 2026-05-07 13:14 | 35.18489 | -13.71650 | 33020 ft | 424 kts | 228° |
| 2026-05-07 13:14 | 35.14460 | -13.76912 | 33019 ft | 424 kts | 228° |
| 2026-05-07 13:15 | 35.10429 | -13.82169 | 33019 ft | 424 kts | 228° |
| 2026-05-07 13:15 | 35.06399 | -13.87420 | 33031 ft | 423 kts | 227° |
| 2026-05-07 13:16 | 35.02393 | -13.92630 | 33025 ft | 423 kts | 227° |
| 2026-05-07 13:16 | 34.98353 | -13.97872 | 33024 ft | 423 kts | 227° |
| 2026-05-07 13:17 | 34.94320 | -14.03098 | 33025 ft | 423 kts | 227° |
| 2026-05-07 13:17 | 34.90284 | -14.08314 | 33016 ft | 424 kts | 228° |
| 2026-05-07 13:18 | 34.86243 | -14.13539 | 33023 ft | 424 kts | 228° |
| 2026-05-07 13:18 | 34.82195 | -14.18763 | 33028 ft | 424 kts | 228° |
| 2026-05-07 13:19 | 34.78174 | -14.23950 | 33044 ft | 422 kts | 227° |
| 2026-05-07 13:19 | 34.74126 | -14.29156 | 33030 ft | 421 kts | 227° |
| 2026-05-07 13:20 | 34.70092 | -14.34335 | 33030 ft | 421 kts | 227° |
| 2026-05-07 13:20 | 34.66073 | -14.39488 | 33032 ft | 421 kts | 227° |
| 2026-05-07 13:21 | 34.62032 | -14.44659 | 33018 ft | 422 kts | 227° |
| 2026-05-07 13:21 | 34.57987 | -14.49832 | 33028 ft | 422 kts | 227° |
| 2026-05-07 13:22 | 34.53933 | -14.55012 | 33031 ft | 422 kts | 227° |
| 2026-05-07 13:22 | 34.49886 | -14.60177 | 33042 ft | 421 kts | 227° |
| 2026-05-07 13:23 | 34.45842 | -14.65327 | 33035 ft | 421 kts | 227° |
| 2026-05-07 13:23 | 34.41798 | -14.70466 | 33033 ft | 421 kts | 227° |
| 2026-05-07 13:24 | 34.37750 | -14.75601 | 33030 ft | 421 kts | 227° |
| 2026-05-07 13:24 | 34.33725 | -14.80700 | 33007 ft | 421 kts | 227° |
| 2026-05-07 13:25 | 34.29668 | -14.85835 | 33029 ft | 422 kts | 227° |
| 2026-05-07 13:25 | 34.25609 | -14.90965 | 33034 ft | 422 kts | 227° |
| 2026-05-07 13:26 | 34.21539 | -14.96092 | 33038 ft | 421 kts | 227° |
| 2026-05-07 13:26 | 34.17501 | -15.01171 | 33036 ft | 420 kts | 227° |
| 2026-05-07 13:27 | 34.13436 | -15.06279 | 33036 ft | 420 kts | 227° |
| 2026-05-07 13:27 | 34.09376 | -15.11376 | 33040 ft | 420 kts | 227° |
| 2026-05-07 13:28 | 34.05327 | -15.16453 | 33039 ft | 420 kts | 227° |
| 2026-05-07 13:28 | 34.01262 | -15.21539 | 33026 ft | 421 kts | 227° |
| 2026-05-07 13:29 | 33.97194 | -15.26627 | 33035 ft | 421 kts | 227° |
| 2026-05-07 13:29 | 33.93150 | -15.31677 | 33037 ft | 421 kts | 227° |
| 2026-05-07 13:30 | 33.89062 | -15.36773 | 33040 ft | 421 kts | 227° |
| 2026-05-07 13:30 | 33.84995 | -15.41837 | 33040 ft | 421 kts | 227° |
| 2026-05-07 13:31 | 33.80920 | -15.46902 | 33038 ft | 421 kts | 227° |
| 2026-05-07 13:31 | 33.76839 | -15.51969 | 33037 ft | 421 kts | 227° |
| 2026-05-07 13:32 | 33.72783 | -15.56995 | 33022 ft | 422 kts | 227° |
| 2026-05-07 13:32 | 33.68686 | -15.62066 | 33038 ft | 423 kts | 227° |
| 2026-05-07 13:33 | 33.64579 | -15.67145 | 33057 ft | 421 kts | 227° |
| 2026-05-07 13:33 | 33.60517 | -15.72163 | 33040 ft | 420 kts | 227° |
| 2026-05-07 13:34 | 33.54399 | -15.79698 | 33042 ft | 420 kts | 227° |
| 2026-05-07 13:35 | 33.50301 | -15.84722 | 33042 ft | 420 kts | 227° |
| 2026-05-07 13:35 | 33.46218 | -15.89726 | 33043 ft | 420 kts | 227° |
| 2026-05-07 13:36 | 33.42126 | -15.94732 | 33031 ft | 420 kts | 227° |
| 2026-05-07 13:36 | 33.38026 | -15.99746 | 33061 ft | 420 kts | 227° |
| 2026-05-07 13:37 | 33.33938 | -16.04742 | 33048 ft | 418 kts | 227° |
| 2026-05-07 13:37 | 33.29881 | -16.09692 | 33030 ft | 417 kts | 227° |
| 2026-05-07 13:38 | 33.26501 | -16.13810 | 33046 ft | 417 kts | 227° |
| 2026-05-07 13:38 | 33.22431 | -16.18765 | 33039 ft | 417 kts | 227° |
| 2026-05-07 13:39 | 33.18360 | -16.23714 | 33024 ft | 417 kts | 227° |
| 2026-05-07 13:39 | 33.14276 | -16.28669 | 33040 ft | 417 kts | 227° |
| 2026-05-07 13:40 | 33.10077 | -16.33409 | 33017 ft | 419 kts | 224° |
| 2026-05-07 13:40 | 33.05497 | -16.37729 | 33037 ft | 418 kts | 219° |
| 2026-05-07 13:41 | 33.00682 | -16.41634 | 33052 ft | 419 kts | 218° |
| 2026-05-07 13:41 | 32.95849 | -16.45518 | 33034 ft | 418 kts | 218° |
| 2026-05-07 13:42 | 32.91026 | -16.49379 | 33038 ft | 418 kts | 218° |
| 2026-05-07 13:42 | 32.86204 | -16.53226 | 33057 ft | 418 kts | 218° |
| 2026-05-07 13:43 | 32.81357 | -16.57080 | 33027 ft | 420 kts | 218° |
| 2026-05-07 13:43 | 32.76484 | -16.60955 | 33049 ft | 420 kts | 218° |
| 2026-05-07 13:44 | 32.71626 | -16.64814 | 33055 ft | 420 kts | 218° |
| 2026-05-07 13:44 | 32.66805 | -16.68636 | 33057 ft | 420 kts | 218° |
| 2026-05-07 13:45 | 32.61925 | -16.72498 | 33073 ft | 417 kts | 218° |
| 2026-05-07 13:45 | 32.57092 | -16.76319 | 33060 ft | 417 kts | 218° |
| 2026-05-07 13:46 | 32.52291 | -16.80103 | 33019 ft | 418 kts | 219° |
| 2026-05-07 13:46 | 32.47434 | -16.83935 | 33044 ft | 419 kts | 219° |
| 2026-05-07 13:47 | 32.42577 | -16.87762 | 33048 ft | 419 kts | 219° |
| 2026-05-07 13:47 | 32.37748 | -16.91561 | 33055 ft | 418 kts | 219° |
| 2026-05-07 13:48 | 32.32876 | -16.95387 | 33059 ft | 418 kts | 219° |
| 2026-05-07 13:48 | 32.28048 | -16.99175 | 33056 ft | 418 kts | 219° |
| 2026-05-07 13:49 | 32.23198 | -17.02974 | 33055 ft | 418 kts | 219° |
| 2026-05-07 13:49 | 32.18347 | -17.06767 | 33072 ft | 416 kts | 219° |
| 2026-05-07 13:50 | 32.13520 | -17.10538 | 33066 ft | 415 kts | 219° |
| 2026-05-07 13:50 | 32.08699 | -17.14301 | 33061 ft | 415 kts | 219° |
| 2026-05-07 13:51 | 32.03897 | -17.18044 | 33062 ft | 415 kts | 219° |
| 2026-05-07 13:51 | 31.99083 | -17.21792 | 33065 ft | 415 kts | 219° |
| 2026-05-07 13:52 | 31.94254 | -17.25541 | 33029 ft | 416 kts | 220° |
| 2026-05-07 13:52 | 31.89412 | -17.29304 | 33063 ft | 417 kts | 220° |
| 2026-05-07 13:53 | 31.84573 | -17.33061 | 33063 ft | 417 kts | 220° |
| 2026-05-07 13:53 | 31.79729 | -17.36815 | 33063 ft | 417 kts | 220° |
| 2026-05-07 13:54 | 31.74889 | -17.40561 | 33086 ft | 416 kts | 220° |
| 2026-05-07 13:54 | 31.70090 | -17.44267 | 33062 ft | 414 kts | 220° |
| 2026-05-07 13:55 | 31.65248 | -17.48002 | 33034 ft | 415 kts | 220° |
| 2026-05-07 13:55 | 31.60428 | -17.51722 | 33052 ft | 417 kts | 220° |
| 2026-05-07 13:56 | 31.55578 | -17.55467 | 33064 ft | 417 kts | 220° |
| 2026-05-07 13:56 | 31.50738 | -17.59199 | 33066 ft | 417 kts | 220° |
| 2026-05-07 13:57 | 31.45862 | -17.62955 | 33064 ft | 417 kts | 220° |
| 2026-05-07 13:57 | 31.41055 | -17.66653 | 33065 ft | 417 kts | 220° |
| 2026-05-07 13:58 | 31.36210 | -17.70375 | 33017 ft | 417 kts | 220° |
| 2026-05-07 13:58 | 31.31319 | -17.74129 | 33058 ft | 419 kts | 220° |
| 2026-05-07 13:59 | 31.26459 | -17.77849 | 33066 ft | 418 kts | 221° |
| 2026-05-07 13:59 | 31.21592 | -17.81576 | 33071 ft | 418 kts | 221° |
| 2026-05-07 14:00 | 31.16717 | -17.85304 | 33067 ft | 417 kts | 221° |
| 2026-05-07 14:00 | 31.11852 | -17.89019 | 33069 ft | 417 kts | 221° |
| 2026-05-07 14:01 | 31.07013 | -17.92710 | 33016 ft | 417 kts | 221° |
| 2026-05-07 14:01 | 31.02130 | -17.96430 | 33060 ft | 421 kts | 221° |
| 2026-05-07 14:02 | 30.97216 | -18.00169 | 33069 ft | 421 kts | 221° |
| 2026-05-07 14:02 | 30.92303 | -18.03900 | 33067 ft | 421 kts | 220° |
| 2026-05-07 14:03 | 30.87392 | -18.07627 | 33070 ft | 421 kts | 220° |
| 2026-05-07 14:03 | 30.82513 | -18.11319 | 33071 ft | 420 kts | 221° |
| 2026-05-07 14:04 | 30.77593 | -18.15044 | 33069 ft | 419 kts | 221° |
| 2026-05-07 14:04 | 30.72678 | -18.18765 | 33057 ft | 424 kts | 221° |
| 2026-05-07 14:05 | 30.67751 | -18.22486 | 33069 ft | 425 kts | 221° |
| 2026-05-07 14:05 | 30.62779 | -18.26235 | 33074 ft | 424 kts | 221° |
| 2026-05-07 14:06 | 30.57823 | -18.29967 | 33069 ft | 424 kts | 221° |
| 2026-05-07 14:06 | 30.52854 | -18.33704 | 33074 ft | 424 kts | 221° |
| 2026-05-07 14:07 | 30.47892 | -18.37432 | 33075 ft | 424 kts | 221° |
| 2026-05-07 14:07 | 30.42917 | -18.41167 | 33050 ft | 429 kts | 221° |
| 2026-05-07 14:08 | 30.37902 | -18.44925 | 33062 ft | 430 kts | 221° |
| 2026-05-07 14:08 | 30.32886 | -18.48676 | 33071 ft | 429 kts | 221° |
| 2026-05-07 14:09 | 30.27861 | -18.52434 | 33075 ft | 429 kts | 221° |
| 2026-05-07 14:09 | 30.22850 | -18.56176 | 33074 ft | 429 kts | 221° |
| 2026-05-07 14:10 | 30.17833 | -18.59918 | 33072 ft | 429 kts | 221° |
| 2026-05-07 14:10 | 30.12812 | -18.63662 | 33064 ft | 433 kts | 221° |
| 2026-05-07 14:11 | 30.07732 | -18.67441 | 33075 ft | 434 kts | 221° |
| 2026-05-07 14:11 | 30.02661 | -18.71207 | 33076 ft | 434 kts | 221° |
| 2026-05-07 14:12 | 29.97589 | -18.74970 | 33072 ft | 434 kts | 221° |
| 2026-05-07 14:12 | 29.92506 | -18.78737 | 33073 ft | 434 kts | 221° |
| 2026-05-07 14:13 | 29.87420 | -18.82502 | 33074 ft | 434 kts | 221° |
| 2026-05-07 14:13 | 29.82329 | -18.86270 | 33058 ft | 437 kts | 220° |
| 2026-05-07 14:14 | 29.77214 | -18.90047 | 33077 ft | 438 kts | 220° |
| 2026-05-07 14:14 | 29.72071 | -18.93838 | 33078 ft | 438 kts | 220° |
| 2026-05-07 14:15 | 29.66933 | -18.97622 | 33075 ft | 438 kts | 220° |
| 2026-05-07 14:15 | 29.61806 | -19.01393 | 33075 ft | 438 kts | 220° |
| 2026-05-07 14:16 | 29.56672 | -19.05166 | 33076 ft | 438 kts | 220° |
| 2026-05-07 14:16 | 29.51504 | -19.08963 | 33057 ft | 442 kts | 220° |
| 2026-05-07 14:17 | 29.46346 | -19.12743 | 33054 ft | 443 kts | 220° |
| 2026-05-07 14:17 | 29.41139 | -19.16554 | 33067 ft | 444 kts | 220° |
| 2026-05-07 14:18 | 29.35910 | -19.20376 | 33072 ft | 444 kts | 220° |
| 2026-05-07 14:18 | 29.30703 | -19.24178 | 33075 ft | 444 kts | 220° |
| 2026-05-07 14:19 | 29.25509 | -19.27967 | 33073 ft | 444 kts | 220° |
| 2026-05-07 14:19 | 29.20303 | -19.31760 | 33074 ft | 444 kts | 220° |
| 2026-05-07 14:20 | 29.15075 | -19.35564 | 33073 ft | 444 kts | 220° |
| 2026-05-07 14:20 | 29.09892 | -19.39330 | 33075 ft | 444 kts | 220° |
| 2026-05-07 14:21 | 29.04669 | -19.43122 | 33070 ft | 444 kts | 220° |
| 2026-05-07 14:21 | 28.99455 | -19.46901 | 33072 ft | 444 kts | 220° |
| 2026-05-07 14:22 | 28.94236 | -19.50680 | 33046 ft | 444 kts | 220° |
| 2026-05-07 14:22 | 28.88992 | -19.54480 | 33069 ft | 448 kts | 220° |
| 2026-05-07 14:23 | 28.83761 | -19.58257 | 33072 ft | 448 kts | 220° |
| 2026-05-07 14:23 | 28.78468 | -19.62074 | 33073 ft | 448 kts | 220° |
| 2026-05-07 14:24 | 28.73223 | -19.65853 | 33072 ft | 448 kts | 220° |
| 2026-05-07 14:24 | 28.67931 | -19.69662 | 33073 ft | 448 kts | 220° |
| 2026-05-07 14:25 | 28.62648 | -19.73460 | 33032 ft | 448 kts | 219° |
| 2026-05-07 14:25 | 28.57388 | -19.77243 | 33070 ft | 451 kts | 219° |
| 2026-05-07 14:26 | 28.52064 | -19.81059 | 33062 ft | 451 kts | 219° |
| 2026-05-07 14:26 | 28.46729 | -19.84880 | 33068 ft | 452 kts | 219° |
| 2026-05-07 14:27 | 28.41424 | -19.88677 | 33069 ft | 452 kts | 219° |
| 2026-05-07 14:27 | 28.36116 | -19.92472 | 33070 ft | 452 kts | 219° |
| 2026-05-07 14:28 | 28.30772 | -19.96292 | 33041 ft | 452 kts | 219° |
| 2026-05-07 14:28 | 28.25455 | -20.00085 | 33073 ft | 454 kts | 218° |
| 2026-05-07 14:29 | 28.20090 | -20.03893 | 33077 ft | 455 kts | 218° |
| 2026-05-07 14:29 | 28.14729 | -20.07696 | 33064 ft | 455 kts | 218° |
| 2026-05-07 14:30 | 28.09371 | -20.11497 | 33078 ft | 455 kts | 218° |
| 2026-05-07 14:30 | 28.04877 | -20.14684 | 33068 ft | 455 kts | 218° |
| 2026-05-07 14:31 | 27.99543 | -20.18465 | 33038 ft | 456 kts | 218° |
| 2026-05-07 14:31 | 27.94138 | -20.22293 | 33061 ft | 458 kts | 218° |
| 2026-05-07 14:32 | 27.88738 | -20.26107 | 33064 ft | 458 kts | 218° |
| 2026-05-07 14:32 | 27.83325 | -20.29926 | 33070 ft | 458 kts | 218° |
| 2026-05-07 14:33 | 27.77926 | -20.33732 | 33068 ft | 458 kts | 218° |
| 2026-05-07 14:33 | 27.72523 | -20.37536 | 33068 ft | 458 kts | 218° |
| 2026-05-07 14:34 | 27.67110 | -20.41347 | 33050 ft | 458 kts | 218° |
| 2026-05-07 14:34 | 27.61688 | -20.45157 | 33064 ft | 459 kts | 218° |
| 2026-05-07 14:35 | 27.56296 | -20.48941 | 33057 ft | 459 kts | 217° |
| 2026-05-07 14:35 | 27.50863 | -20.52748 | 33063 ft | 460 kts | 217° |
| 2026-05-07 14:36 | 27.45408 | -20.56565 | 33064 ft | 460 kts | 217° |
| 2026-05-07 14:36 | 27.39992 | -20.60352 | 33065 ft | 460 kts | 217° |
| 2026-05-07 14:37 | 27.34543 | -20.64162 | 33054 ft | 461 kts | 217° |
| 2026-05-07 14:37 | 27.26367 | -20.69863 | 33058 ft | 462 kts | 217° |
| 2026-05-07 14:38 | 27.20886 | -20.73678 | 33064 ft | 461 kts | 217° |
| 2026-05-07 14:38 | 27.15423 | -20.77478 | 33060 ft | 462 kts | 217° |
| 2026-05-07 14:39 | 27.09962 | -20.81272 | 33045 ft | 462 kts | 217° |
| 2026-05-07 14:39 | 27.04494 | -20.85071 | 33041 ft | 464 kts | 217° |
| 2026-05-07 14:40 | 26.98990 | -20.88886 | 33056 ft | 465 kts | 217° |
| 2026-05-07 14:40 | 26.93498 | -20.92686 | 33059 ft | 465 kts | 217° |
| 2026-05-07 14:41 | 26.87970 | -20.96508 | 33060 ft | 465 kts | 217° |
| 2026-05-07 14:41 | 26.82475 | -21.00303 | 33057 ft | 465 kts | 217° |
| 2026-05-07 14:42 | 26.76976 | -21.04097 | 33061 ft | 465 kts | 217° |
| 2026-05-07 14:42 | 26.71459 | -21.07901 | 33062 ft | 466 kts | 216° |
| 2026-05-07 14:43 | 26.65907 | -21.11723 | 33059 ft | 467 kts | 216° |
| 2026-05-07 14:43 | 26.60378 | -21.15524 | 33055 ft | 468 kts | 216° |
| 2026-05-07 14:44 | 26.54846 | -21.19324 | 33061 ft | 468 kts | 216° |
| 2026-05-07 14:44 | 26.49286 | -21.23137 | 33063 ft | 468 kts | 216° |
| 2026-05-07 14:45 | 26.43730 | -21.26944 | 33057 ft | 469 kts | 216° |
| 2026-05-07 14:45 | 26.38175 | -21.30748 | 33050 ft | 469 kts | 216° |
| 2026-05-07 14:46 | 26.32591 | -21.34565 | 33060 ft | 469 kts | 216° |
| 2026-05-07 14:46 | 26.27014 | -21.38373 | 33062 ft | 471 kts | 216° |
| 2026-05-07 14:47 | 26.24222 | -21.40278 | 33346 ft | 473 kts | 216° |
| 2026-05-07 14:47 | 26.21415 | -21.42190 | 33910 ft | 469 kts | 216° |
| 2026-05-07 14:47 | 26.18659 | -21.44065 | 34424 ft | 465 kts | 216° |
| 2026-05-07 14:47 | 26.15916 | -21.45932 | 34876 ft | 463 kts | 216° |
| 2026-05-07 14:48 | 26.13150 | -21.47814 | 35260 ft | 462 kts | 216° |
| 2026-05-07 14:48 | 26.10419 | -21.49674 | 35588 ft | 462 kts | 216° |
| 2026-05-07 14:48 | 26.07671 | -21.51543 | 35901 ft | 462 kts | 216° |
| 2026-05-07 14:48 | 26.04938 | -21.53401 | 36055 ft | 462 kts | 216° |
| 2026-05-07 14:49 | 25.99458 | -21.57124 | 36055 ft | 462 kts | 216° |
| 2026-05-07 14:49 | 25.93968 | -21.60849 | 36058 ft | 462 kts | 216° |
| 2026-05-07 14:50 | 25.88500 | -21.64554 | 36060 ft | 462 kts | 216° |
| 2026-05-07 14:50 | 25.83008 | -21.68272 | 36060 ft | 462 kts | 216° |
| 2026-05-07 14:51 | 25.77516 | -21.71985 | 36041 ft | 462 kts | 216° |
| 2026-05-07 14:51 | 25.72021 | -21.75698 | 36055 ft | 462 kts | 216° |
| 2026-05-07 14:52 | 25.66552 | -21.79386 | 36057 ft | 462 kts | 216° |
| 2026-05-07 14:52 | 25.61034 | -21.83105 | 36052 ft | 464 kts | 216° |
| 2026-05-07 14:53 | 25.55503 | -21.86827 | 36054 ft | 464 kts | 216° |
| 2026-05-07 14:53 | 25.49984 | -21.90537 | 36053 ft | 464 kts | 216° |
| 2026-05-07 14:54 | 25.44483 | -21.94234 | 36058 ft | 465 kts | 216° |
| 2026-05-07 14:54 | 25.38947 | -21.97948 | 36058 ft | 465 kts | 216° |
| 2026-05-07 14:55 | 25.33405 | -22.01662 | 36057 ft | 465 kts | 216° |
| 2026-05-07 14:55 | 25.27873 | -22.05365 | 36055 ft | 465 kts | 216° |
| 2026-05-07 14:56 | 25.22330 | -22.09072 | 36056 ft | 465 kts | 216° |
| 2026-05-07 14:56 | 25.16817 | -22.12755 | 36054 ft | 465 kts | 216° |
| 2026-05-07 14:57 | 25.11274 | -22.16456 | 36040 ft | 465 kts | 216° |
| 2026-05-07 14:57 | 25.05742 | -22.20144 | 36054 ft | 465 kts | 216° |
| 2026-05-07 14:58 | 25.00192 | -22.23839 | 36054 ft | 465 kts | 216° |
| 2026-05-07 14:58 | 24.94672 | -22.27511 | 36055 ft | 465 kts | 216° |
| 2026-05-07 14:59 | 24.89142 | -22.31187 | 36057 ft | 465 kts | 216° |
| 2026-05-07 14:59 | 24.83574 | -22.34885 | 36055 ft | 465 kts | 216° |
| 2026-05-07 15:00 | 24.78039 | -22.38557 | 36047 ft | 465 kts | 216° |
| 2026-05-07 15:00 | 24.72511 | -22.42222 | 36057 ft | 464 kts | 216° |
| 2026-05-07 15:01 | 24.66998 | -22.45874 | 36046 ft | 464 kts | 215° |
| 2026-05-07 15:01 | 24.61444 | -22.49543 | 36053 ft | 466 kts | 215° |
| 2026-05-07 15:02 | 24.55869 | -22.53214 | 36052 ft | 466 kts | 215° |
| 2026-05-07 15:02 | 24.50311 | -22.56875 | 36057 ft | 466 kts | 215° |
| 2026-05-07 15:03 | 24.44773 | -22.60523 | 36045 ft | 466 kts | 215° |
| 2026-05-07 15:03 | 24.39195 | -22.64193 | 36050 ft | 465 kts | 215° |
| 2026-05-07 15:04 | 24.33667 | -22.67827 | 36055 ft | 466 kts | 215° |
| 2026-05-07 15:04 | 24.28099 | -22.71484 | 36054 ft | 466 kts | 215° |
| 2026-05-07 15:05 | 24.22529 | -22.75139 | 36056 ft | 466 kts | 215° |
| 2026-05-07 15:05 | 24.16965 | -22.78785 | 36049 ft | 466 kts | 215° |
| 2026-05-07 15:06 | 24.11425 | -22.82414 | 36053 ft | 467 kts | 215° |
| 2026-05-07 15:06 | 24.05857 | -22.86055 | 36055 ft | 467 kts | 215° |
| 2026-05-07 15:07 | 24.00275 | -22.89703 | 36055 ft | 467 kts | 215° |
| 2026-05-07 15:07 | 23.94696 | -22.93345 | 36053 ft | 467 kts | 215° |
| 2026-05-07 15:08 | 23.89103 | -22.96992 | 36055 ft | 467 kts | 215° |
| 2026-05-07 15:08 | 23.83514 | -23.00633 | 36035 ft | 467 kts | 215° |
| 2026-05-07 15:09 | 23.77940 | -23.04261 | 36052 ft | 467 kts | 215° |
| 2026-05-07 15:09 | 23.72373 | -23.07880 | 36055 ft | 467 kts | 215° |
| 2026-05-07 15:10 | 23.66756 | -23.11528 | 36046 ft | 468 kts | 215° |
| 2026-05-07 15:10 | 23.61158 | -23.15161 | 36053 ft | 469 kts | 215° |
| 2026-05-07 15:11 | 23.55583 | -23.18774 | 36052 ft | 469 kts | 215° |
| 2026-05-07 15:11 | 23.49966 | -23.22412 | 36036 ft | 469 kts | 215° |
| 2026-05-07 15:12 | 23.44329 | -23.26059 | 36049 ft | 469 kts | 215° |
| 2026-05-07 15:12 | 23.38714 | -23.29688 | 36052 ft | 470 kts | 215° |
| 2026-05-07 15:13 | 23.33095 | -23.33315 | 36052 ft | 470 kts | 215° |
| 2026-05-07 15:13 | 23.27514 | -23.36916 | 36052 ft | 470 kts | 215° |
| 2026-05-07 15:14 | 23.21893 | -23.40538 | 36052 ft | 470 kts | 215° |
| 2026-05-07 15:14 | 23.16258 | -23.44166 | 36027 ft | 471 kts | 215° |
| 2026-05-07 15:15 | 23.10617 | -23.47796 | 36045 ft | 472 kts | 215° |
| 2026-05-07 15:15 | 23.04973 | -23.51423 | 36051 ft | 472 kts | 215° |
| 2026-05-07 15:16 | 22.99296 | -23.55071 | 36052 ft | 472 kts | 215° |
| 2026-05-07 15:16 | 22.93643 | -23.58698 | 36052 ft | 472 kts | 215° |
| 2026-05-07 15:17 | 22.87981 | -23.62320 | 36052 ft | 472 kts | 215° |
| 2026-05-07 15:17 | 22.82318 | -23.65938 | 36052 ft | 472 kts | 215° |
| 2026-05-07 15:18 | 22.76691 | -23.69533 | 36050 ft | 472 kts | 215° |
| 2026-05-07 15:18 | 22.71013 | -23.73159 | 36049 ft | 472 kts | 215° |
| 2026-05-07 15:19 | 22.65347 | -23.76776 | 36044 ft | 473 kts | 215° |
| 2026-05-07 15:19 | 22.59668 | -23.80398 | 36048 ft | 474 kts | 215° |
| 2026-05-07 15:20 | 22.53998 | -23.84011 | 36046 ft | 474 kts | 215° |
| 2026-05-07 15:20 | 22.48301 | -23.87638 | 36041 ft | 474 kts | 214° |
| 2026-05-07 15:21 | 22.42617 | -23.91253 | 36045 ft | 475 kts | 214° |
| 2026-05-07 15:21 | 22.36934 | -23.94862 | 36046 ft | 475 kts | 214° |
| 2026-05-07 15:22 | 22.31239 | -23.98477 | 36046 ft | 474 kts | 214° |
| 2026-05-07 15:22 | 22.25547 | -24.02086 | 36047 ft | 474 kts | 214° |
| 2026-05-07 15:23 | 22.20785 | -24.05103 | 36044 ft | 474 kts | 214° |
| 2026-05-07 15:23 | 22.15110 | -24.08697 | 36037 ft | 475 kts | 214° |
| 2026-05-07 15:24 | 22.09408 | -24.12303 | 36040 ft | 476 kts | 214° |
| 2026-05-07 15:24 | 22.03676 | -24.15923 | 36042 ft | 476 kts | 214° |
| 2026-05-07 15:25 | 21.97952 | -24.19535 | 36043 ft | 476 kts | 214° |
| 2026-05-07 15:25 | 21.92269 | -24.23119 | 36044 ft | 476 kts | 214° |
| 2026-05-07 15:26 | 21.86553 | -24.26719 | 36043 ft | 476 kts | 214° |
| 2026-05-07 15:26 | 21.80821 | -24.30329 | 36037 ft | 475 kts | 214° |
| 2026-05-07 15:27 | 21.75126 | -24.33910 | 36042 ft | 475 kts | 214° |
| 2026-05-07 15:27 | 21.69391 | -24.37512 | 36040 ft | 475 kts | 214° |
| 2026-05-07 15:28 | 21.63702 | -24.41084 | 36039 ft | 476 kts | 214° |
| 2026-05-07 15:28 | 21.57942 | -24.44695 | 36040 ft | 477 kts | 214° |
| 2026-05-07 15:29 | 21.52239 | -24.48268 | 36025 ft | 477 kts | 214° |
| 2026-05-07 15:29 | 21.46501 | -24.51861 | 36049 ft | 477 kts | 214° |
| 2026-05-07 15:30 | 21.40782 | -24.55436 | 36044 ft | 477 kts | 214° |
| 2026-05-07 15:30 | 21.35047 | -24.59018 | 36042 ft | 476 kts | 214° |
| 2026-05-07 15:31 | 21.29306 | -24.62602 | 36041 ft | 476 kts | 214° |
| 2026-05-07 15:31 | 21.23577 | -24.66175 | 36045 ft | 476 kts | 214° |
| 2026-05-07 15:32 | 21.17862 | -24.69736 | 36021 ft | 476 kts | 214° |
| 2026-05-07 15:32 | 21.12119 | -24.73313 | 36032 ft | 478 kts | 213° |
| 2026-05-07 15:33 | 21.06361 | -24.76893 | 36031 ft | 478 kts | 213° |
| 2026-05-07 15:33 | 21.00609 | -24.80466 | 36038 ft | 478 kts | 213° |
| 2026-05-07 15:34 | 20.94851 | -24.84041 | 36036 ft | 478 kts | 213° |
| 2026-05-07 15:34 | 20.89085 | -24.87617 | 36035 ft | 478 kts | 213° |
| 2026-05-07 15:35 | 20.83321 | -24.91189 | 36028 ft | 479 kts | 213° |
| 2026-05-07 15:35 | 20.77548 | -24.94764 | 36034 ft | 479 kts | 213° |
| 2026-05-07 15:36 | 20.71770 | -24.98338 | 36037 ft | 479 kts | 213° |
| 2026-05-07 15:36 | 20.66029 | -25.01886 | 36039 ft | 479 kts | 213° |
| 2026-05-07 15:37 | 20.60232 | -25.05467 | 36033 ft | 480 kts | 213° |
| 2026-05-07 15:37 | 20.54454 | -25.09031 | 36036 ft | 481 kts | 213° |
| 2026-05-07 15:38 | 20.48648 | -25.12611 | 36030 ft | 482 kts | 213° |
| 2026-05-07 15:38 | 20.42852 | -25.16180 | 36032 ft | 482 kts | 213° |
| 2026-05-07 15:39 | 20.37032 | -25.19761 | 36033 ft | 482 kts | 213° |
| 2026-05-07 15:39 | 20.31221 | -25.23333 | 36034 ft | 482 kts | 213° |
| 2026-05-07 15:40 | 20.25415 | -25.26899 | 36032 ft | 482 kts | 213° |
| 2026-05-07 15:40 | 20.19597 | -25.30470 | 36031 ft | 482 kts | 213° |
| 2026-05-07 15:41 | 20.13772 | -25.34045 | 36024 ft | 483 kts | 213° |
| 2026-05-07 15:41 | 20.07942 | -25.37615 | 36029 ft | 483 kts | 213° |
| 2026-05-07 15:42 | 20.02116 | -25.41180 | 36031 ft | 483 kts | 213° |
| 2026-05-07 15:42 | 19.96319 | -25.44725 | 36028 ft | 483 kts | 213° |
| 2026-05-07 15:43 | 19.90499 | -25.48281 | 36027 ft | 483 kts | 213° |
| 2026-05-07 15:43 | 19.84655 | -25.51849 | 36032 ft | 483 kts | 213° |
| 2026-05-07 15:44 | 19.78803 | -25.55423 | 36023 ft | 484 kts | 212° |
| 2026-05-07 15:44 | 19.72985 | -25.58967 | 36023 ft | 484 kts | 212° |
| 2026-05-07 15:45 | 19.67128 | -25.62533 | 36023 ft | 484 kts | 212° |
| 2026-05-07 15:45 | 19.61283 | -25.66091 | 36024 ft | 485 kts | 212° |
| 2026-05-07 15:46 | 19.52510 | -25.71423 | 36023 ft | 485 kts | 212° |
| 2026-05-07 15:47 | 19.46644 | -25.74985 | 36025 ft | 485 kts | 212° |
| 2026-05-07 15:47 | 19.40774 | -25.78545 | 36022 ft | 485 kts | 212° |
| 2026-05-07 15:48 | 19.34925 | -25.82092 | 36023 ft | 485 kts | 212° |
| 2026-05-07 15:48 | 19.29061 | -25.85644 | 36023 ft | 485 kts | 212° |
| 2026-05-07 15:49 | 19.23173 | -25.89208 | 36019 ft | 485 kts | 212° |
| 2026-05-07 15:49 | 19.17322 | -25.92747 | 36011 ft | 485 kts | 212° |
| 2026-05-07 15:50 | 19.11455 | -25.96298 | 36013 ft | 486 kts | 212° |
| 2026-05-07 15:50 | 19.05572 | -25.99850 | 36020 ft | 487 kts | 212° |
| 2026-05-07 15:51 | 18.99692 | -26.03400 | 36018 ft | 487 kts | 212° |
| 2026-05-07 15:51 | 18.93790 | -26.06954 | 36018 ft | 487 kts | 212° |
| 2026-05-07 15:52 | 18.87920 | -26.10455 | 36014 ft | 487 kts | 211° |
| 2026-05-07 15:52 | 18.81980 | -26.13998 | 36018 ft | 487 kts | 211° |
| 2026-05-07 15:53 | 18.76114 | -26.17498 | 36016 ft | 487 kts | 211° |
| 2026-05-07 15:53 | 18.70209 | -26.21018 | 36016 ft | 487 kts | 211° |
| 2026-05-07 15:54 | 18.64302 | -26.24539 | 36021 ft | 487 kts | 211° |
| 2026-05-07 15:54 | 18.58417 | -26.28045 | 36007 ft | 487 kts | 211° |
| 2026-05-07 15:55 | 18.52496 | -26.31568 | 36010 ft | 488 kts | 211° |
| 2026-05-07 15:55 | 18.46604 | -26.35074 | 36018 ft | 487 kts | 211° |
| 2026-05-07 15:56 | 18.40703 | -26.38579 | 36007 ft | 487 kts | 211° |
| 2026-05-07 15:56 | 18.34794 | -26.42086 | 36008 ft | 487 kts | 211° |
| 2026-05-07 15:57 | 18.28879 | -26.45595 | 36004 ft | 487 kts | 211° |
| 2026-05-07 15:57 | 18.23013 | -26.49073 | 36018 ft | 487 kts | 211° |
| 2026-05-07 15:58 | 18.17081 | -26.52586 | 36001 ft | 487 kts | 211° |
| 2026-05-07 15:58 | 18.11200 | -26.56064 | 36000 ft | 484 kts | 211° |
| 2026-05-07 15:59 | 18.05329 | -26.59539 | 36012 ft | 486 kts | 211° |
| 2026-05-07 15:59 | 17.99457 | -26.63009 | 35996 ft | 486 kts | 211° |
| 2026-05-07 16:00 | 17.93554 | -26.66494 | 36008 ft | 486 kts | 211° |
| 2026-05-07 16:00 | 17.87643 | -26.69981 | 36009 ft | 486 kts | 211° |
| 2026-05-07 16:01 | 17.81746 | -26.73457 | 36004 ft | 486 kts | 211° |
| 2026-05-07 16:01 | 17.75878 | -26.76909 | 36004 ft | 481 kts | 211° |
| 2026-05-07 16:02 | 17.70039 | -26.80348 | 36003 ft | 480 kts | 211° |
| 2026-05-07 16:02 | 17.64220 | -26.83773 | 36004 ft | 480 kts | 211° |
| 2026-05-07 16:03 | 17.58390 | -26.87200 | 35997 ft | 480 kts | 211° |
| 2026-05-07 16:03 | 17.52564 | -26.90624 | 36001 ft | 482 kts | 211° |
| 2026-05-07 16:04 | 17.46715 | -26.94054 | 36002 ft | 481 kts | 211° |
| 2026-05-07 16:04 | 17.40900 | -26.97462 | 36003 ft | 478 kts | 211° |
| 2026-05-07 16:05 | 17.35103 | -27.00861 | 36003 ft | 478 kts | 211° |
| 2026-05-07 16:05 | 17.29295 | -27.04264 | 36004 ft | 478 kts | 211° |
| 2026-05-07 16:06 | 17.23494 | -27.07660 | 36000 ft | 478 kts | 211° |
| 2026-05-07 16:06 | 17.17682 | -27.11058 | 36001 ft | 478 kts | 211° |
| 2026-05-07 16:07 | 17.11888 | -27.14441 | 36001 ft | 476 kts | 211° |
| 2026-05-07 16:07 | 17.06146 | -27.17793 | 35997 ft | 474 kts | 211° |
| 2026-05-07 16:08 | 17.00367 | -27.21169 | 35999 ft | 475 kts | 211° |
| 2026-05-07 16:08 | 16.94592 | -27.24537 | 36003 ft | 475 kts | 211° |
| 2026-05-07 16:09 | 16.88812 | -27.27904 | 36003 ft | 476 kts | 211° |
| 2026-05-07 16:09 | 16.83039 | -27.31266 | 36000 ft | 476 kts | 211° |
| 2026-05-07 16:10 | 16.77269 | -27.34617 | 35995 ft | 471 kts | 212° |
| 2026-05-07 16:10 | 16.71548 | -27.37944 | 35995 ft | 469 kts | 212° |
| 2026-05-07 16:11 | 16.65879 | -27.41242 | 35999 ft | 469 kts | 212° |
| 2026-05-07 16:11 | 16.60145 | -27.44573 | 35998 ft | 469 kts | 212° |
| 2026-05-07 16:12 | 16.54471 | -27.47866 | 35996 ft | 469 kts | 212° |
| 2026-05-07 16:12 | 16.48732 | -27.51195 | 35997 ft | 470 kts | 212° |
| 2026-05-07 16:13 | 16.43053 | -27.54477 | 35991 ft | 466 kts | 212° |
| 2026-05-07 16:13 | 16.37400 | -27.57752 | 35995 ft | 464 kts | 213° |
| 2026-05-07 16:14 | 16.31777 | -27.61010 | 35994 ft | 463 kts | 213° |
| 2026-05-07 16:14 | 16.26136 | -27.64274 | 35994 ft | 463 kts | 212° |
| 2026-05-07 16:15 | 16.20505 | -27.67529 | 35997 ft | 463 kts | 212° |
| 2026-05-07 16:15 | 16.14870 | -27.70784 | 35996 ft | 463 kts | 212° |
| 2026-05-07 16:16 | 16.10158 | -27.73504 | 35995 ft | 463 kts | 212° |
| 2026-05-07 16:16 | 16.04524 | -27.76754 | 35996 ft | 464 kts | 212° |
| 2026-05-07 16:17 | 15.98882 | -27.80007 | 35998 ft | 464 kts | 212° |
| 2026-05-07 16:17 | 15.93217 | -27.83271 | 35997 ft | 464 kts | 212° |
| 2026-05-07 16:18 | 15.87563 | -27.86526 | 35995 ft | 464 kts | 212° |
| 2026-05-07 16:18 | 15.81900 | -27.89784 | 35996 ft | 464 kts | 212° |
| 2026-05-07 16:19 | 15.76265 | -27.93019 | 35998 ft | 462 kts | 213° |
| 2026-05-07 16:19 | 15.70663 | -27.96237 | 35998 ft | 459 kts | 213° |
| 2026-05-07 16:20 | 15.65096 | -27.99438 | 35995 ft | 459 kts | 213° |
| 2026-05-07 16:20 | 15.59501 | -28.02651 | 35988 ft | 459 kts | 213° |
| 2026-05-07 16:21 | 15.53913 | -28.05857 | 35991 ft | 459 kts | 213° |
| 2026-05-07 16:21 | 15.48324 | -28.09061 | 35993 ft | 459 kts | 213° |
| 2026-05-07 16:22 | 15.42726 | -28.12264 | 35987 ft | 458 kts | 213° |
| 2026-05-07 16:22 | 15.37195 | -28.15429 | 35990 ft | 456 kts | 213° |
| 2026-05-07 16:23 | 15.31632 | -28.18615 | 35993 ft | 456 kts | 213° |
| 2026-05-07 16:23 | 15.26068 | -28.21799 | 35991 ft | 456 kts | 213° |
| 2026-05-07 16:24 | 15.20538 | -28.24960 | 35992 ft | 456 kts | 213° |
| 2026-05-07 16:24 | 15.14984 | -28.28133 | 35991 ft | 456 kts | 213° |
| 2026-05-07 16:25 | 15.09403 | -28.31317 | 35984 ft | 455 kts | 214° |
| 2026-05-07 16:25 | 15.03868 | -28.34474 | 35990 ft | 454 kts | 214° |
| 2026-05-07 16:26 | 14.98338 | -28.37631 | 35991 ft | 454 kts | 214° |
| 2026-05-07 16:26 | 14.92830 | -28.40773 | 35989 ft | 454 kts | 214° |
| 2026-05-07 16:27 | 14.87297 | -28.43929 | 35989 ft | 454 kts | 214° |
| 2026-05-07 16:27 | 14.81761 | -28.47081 | 35989 ft | 454 kts | 214° |
| 2026-05-07 16:28 | 14.76245 | -28.50235 | 35973 ft | 453 kts | 214° |
| 2026-05-07 16:28 | 14.70730 | -28.53403 | 35987 ft | 453 kts | 214° |
| 2026-05-07 16:29 | 14.65229 | -28.56568 | 35986 ft | 452 kts | 214° |
| 2026-05-07 16:29 | 14.59756 | -28.59715 | 35987 ft | 453 kts | 214° |
| 2026-05-07 16:30 | 14.54242 | -28.62885 | 35986 ft | 453 kts | 214° |
| 2026-05-07 16:30 | 14.48747 | -28.66041 | 35989 ft | 452 kts | 214° |
| 2026-05-07 16:31 | 14.43251 | -28.69197 | 35990 ft | 453 kts | 214° |
| 2026-05-07 16:31 | 14.37715 | -28.72370 | 35987 ft | 451 kts | 214° |
| 2026-05-07 16:32 | 14.32229 | -28.75517 | 35989 ft | 451 kts | 214° |
| 2026-05-07 16:32 | 14.26773 | -28.78644 | 35990 ft | 451 kts | 214° |
| 2026-05-07 16:33 | 14.21284 | -28.81789 | 35987 ft | 451 kts | 214° |
| 2026-05-07 16:33 | 14.15805 | -28.84926 | 35987 ft | 451 kts | 214° |
| 2026-05-07 16:34 | 14.10338 | -28.88054 | 35987 ft | 451 kts | 214° |
| 2026-05-07 16:34 | 14.04855 | -28.91185 | 35981 ft | 449 kts | 214° |
| 2026-05-07 16:35 | 13.99402 | -28.94303 | 35985 ft | 448 kts | 214° |
| 2026-05-07 16:35 | 13.93954 | -28.97417 | 35988 ft | 449 kts | 214° |
| 2026-05-07 16:36 | 13.88487 | -29.00539 | 35987 ft | 449 kts | 214° |
| 2026-05-07 16:36 | 13.83011 | -29.03664 | 35987 ft | 449 kts | 214° |
| 2026-05-07 16:37 | 13.77550 | -29.06778 | 35987 ft | 449 kts | 214° |
| 2026-05-07 16:37 | 13.72088 | -29.09890 | 35980 ft | 448 kts | 214° |
| 2026-05-07 16:38 | 13.66636 | -29.12996 | 35983 ft | 448 kts | 214° |
| 2026-05-07 16:38 | 13.61186 | -29.16099 | 35985 ft | 448 kts | 214° |
| 2026-05-07 16:39 | 13.55750 | -29.19193 | 35986 ft | 448 kts | 214° |
| 2026-05-07 16:39 | 13.50296 | -29.22295 | 35988 ft | 448 kts | 214° |
| 2026-05-07 16:40 | 13.44830 | -29.25403 | 35980 ft | 448 kts | 214° |
| 2026-05-07 16:40 | 13.39362 | -29.28511 | 35974 ft | 449 kts | 214° |
| 2026-05-07 16:41 | 13.33879 | -29.31625 | 35993 ft | 449 kts | 214° |
| 2026-05-07 16:41 | 13.28429 | -29.34717 | 35972 ft | 449 kts | 214° |
| 2026-05-07 16:42 | 13.22952 | -29.37824 | 35994 ft | 449 kts | 214° |
| 2026-05-07 16:42 | 13.17475 | -29.40929 | 35973 ft | 449 kts | 214° |
| 2026-05-07 16:43 | 13.11995 | -29.44034 | 35978 ft | 449 kts | 214° |
| 2026-05-07 16:43 | 13.06511 | -29.47140 | 35985 ft | 449 kts | 214° |
| 2026-05-07 16:44 | 13.01089 | -29.50213 | 35981 ft | 447 kts | 214° |
| 2026-05-07 16:44 | 12.95639 | -29.53294 | 35981 ft | 447 kts | 214° |
| 2026-05-07 16:45 | 12.90174 | -29.56386 | 35979 ft | 448 kts | 214° |
| 2026-05-07 16:45 | 12.84744 | -29.59454 | 35982 ft | 448 kts | 214° |
| 2026-05-07 16:46 | 12.79279 | -29.62542 | 35981 ft | 448 kts | 214° |
| 2026-05-07 16:46 | 12.73822 | -29.65623 | 35981 ft | 448 kts | 214° |
| 2026-05-07 16:47 | 12.68361 | -29.68705 | 35983 ft | 447 kts | 214° |
| 2026-05-07 16:47 | 12.62936 | -29.71765 | 35979 ft | 447 kts | 214° |
| 2026-05-07 16:48 | 12.57463 | -29.74851 | 35974 ft | 447 kts | 214° |
| 2026-05-07 16:48 | 12.52040 | -29.77908 | 35978 ft | 447 kts | 214° |
| 2026-05-07 16:49 | 12.46563 | -29.80993 | 35976 ft | 447 kts | 214° |
| 2026-05-07 16:49 | 12.41102 | -29.84069 | 35976 ft | 448 kts | 214° |
| 2026-05-07 16:50 | 12.35658 | -29.87135 | 35973 ft | 449 kts | 213° |
| 2026-05-07 16:50 | 12.30171 | -29.90220 | 35974 ft | 450 kts | 213° |
| 2026-05-07 16:51 | 12.24678 | -29.93307 | 35976 ft | 450 kts | 213° |
| 2026-05-07 16:51 | 12.19177 | -29.96398 | 35976 ft | 450 kts | 213° |
| 2026-05-07 16:52 | 12.13704 | -29.99472 | 35975 ft | 450 kts | 213° |
| 2026-05-07 16:52 | 12.08207 | -30.02558 | 35975 ft | 450 kts | 213° |
| 2026-05-07 16:53 | 12.02705 | -30.05646 | 35969 ft | 451 kts | 213° |
| 2026-05-07 16:53 | 11.97197 | -30.08736 | 35975 ft | 452 kts | 213° |
| 2026-05-07 16:54 | 11.91721 | -30.11806 | 35974 ft | 452 kts | 213° |
| 2026-05-07 16:54 | 11.86201 | -30.14899 | 35975 ft | 453 kts | 213° |
| 2026-05-07 16:55 | 11.80664 | -30.18001 | 35970 ft | 453 kts | 213° |
| 2026-05-07 16:55 | 11.75122 | -30.21103 | 35969 ft | 453 kts | 213° |
| 2026-05-07 16:56 | 11.69604 | -30.24192 | 35963 ft | 453 kts | 213° |
| 2026-05-07 16:56 | 11.61321 | -30.28824 | 35969 ft | 454 kts | 213° |
| 2026-05-07 16:57 | 11.55785 | -30.31918 | 35972 ft | 454 kts | 213° |
| 2026-05-07 16:57 | 11.50241 | -30.35016 | 35973 ft | 454 kts | 213° |
| 2026-05-07 16:58 | 11.44700 | -30.38110 | 35970 ft | 454 kts | 213° |
| 2026-05-07 16:58 | 11.39164 | -30.41201 | 35966 ft | 454 kts | 213° |
| 2026-05-07 16:59 | 11.33602 | -30.44308 | 35964 ft | 455 kts | 213° |
| 2026-05-07 16:59 | 11.28042 | -30.47408 | 35963 ft | 455 kts | 213° |
| 2026-05-07 17:00 | 11.22495 | -30.50499 | 35966 ft | 454 kts | 213° |
| 2026-05-07 17:00 | 11.16949 | -30.53590 | 35967 ft | 454 kts | 213° |
| 2026-05-07 17:01 | 11.11403 | -30.56679 | 35966 ft | 455 kts | 213° |
| 2026-05-07 17:01 | 11.05840 | -30.59778 | 35965 ft | 455 kts | 213° |
| 2026-05-07 17:02 | 11.00324 | -30.62852 | 35957 ft | 456 kts | 212° |
| 2026-05-07 17:02 | 10.94750 | -30.65953 | 35960 ft | 456 kts | 212° |
| 2026-05-07 17:03 | 10.89186 | -30.69048 | 35960 ft | 456 kts | 212° |
| 2026-05-07 17:03 | 10.83585 | -30.72165 | 35960 ft | 457 kts | 212° |
| 2026-05-07 17:04 | 10.78031 | -30.75254 | 35961 ft | 457 kts | 212° |
| 2026-05-07 17:04 | 10.72466 | -30.78362 | 35963 ft | 457 kts | 213° |
| 2026-05-07 17:05 | 10.66902 | -30.81487 | 35958 ft | 458 kts | 212° |
| 2026-05-07 17:05 | 10.62257 | -30.84093 | 35957 ft | 459 kts | 212° |
| 2026-05-07 17:06 | 10.56624 | -30.87238 | 35959 ft | 459 kts | 212° |
| 2026-05-07 17:06 | 10.51035 | -30.90309 | 35959 ft | 459 kts | 212° |
| 2026-05-07 17:07 | 10.45405 | -30.93403 | 35957 ft | 459 kts | 212° |
| 2026-05-07 17:07 | 10.39762 | -30.96509 | 35958 ft | 459 kts | 212° |
| 2026-05-07 17:08 | 10.34171 | -30.99588 | 35947 ft | 460 kts | 212° |
| 2026-05-07 17:08 | 10.28515 | -31.02704 | 35950 ft | 461 kts | 212° |
| 2026-05-07 17:09 | 10.22895 | -31.05795 | 35951 ft | 461 kts | 212° |
| 2026-05-07 17:09 | 10.17252 | -31.08899 | 36083 ft | 461 kts | 212° |
| 2026-05-07 17:10 | 10.14404 | -31.10465 | 36227 ft | 460 kts | 212° |
| 2026-05-07 17:10 | 10.11591 | -31.12012 | 36339 ft | 460 kts | 212° |
| 2026-05-07 17:10 | 10.08790 | -31.13552 | 36444 ft | 460 kts | 212° |
| 2026-05-07 17:10 | 10.05981 | -31.15096 | 36585 ft | 460 kts | 212° |
| 2026-05-07 17:11 | 10.03171 | -31.16641 | 36699 ft | 459 kts | 212° |
| 2026-05-07 17:11 | 10.00372 | -31.18182 | 36821 ft | 460 kts | 212° |
| 2026-05-07 17:11 | 9.97555 | -31.19731 | 36951 ft | 460 kts | 212° |
| 2026-05-07 17:11 | 9.94720 | -31.21287 | 37075 ft | 460 kts | 212° |
| 2026-05-07 17:12 | 9.91931 | -31.22818 | 37198 ft | 460 kts | 212° |
| 2026-05-07 17:12 | 9.89123 | -31.24360 | 37331 ft | 459 kts | 212° |
| 2026-05-07 17:12 | 9.86277 | -31.25922 | 37460 ft | 459 kts | 212° |
| 2026-05-07 17:12 | 9.83487 | -31.27454 | 37591 ft | 459 kts | 212° |
| 2026-05-07 17:13 | 9.80683 | -31.28994 | 37726 ft | 459 kts | 212° |
| 2026-05-07 17:13 | 9.77883 | -31.30532 | 37851 ft | 458 kts | 212° |
| 2026-05-07 17:13 | 9.72288 | -31.33607 | 37946 ft | 458 kts | 212° |
| 2026-05-07 17:14 | 9.66662 | -31.36695 | 37944 ft | 459 kts | 212° |
| 2026-05-07 17:14 | 9.61066 | -31.39753 | 37951 ft | 459 kts | 212° |
| 2026-05-07 17:15 | 9.55410 | -31.42841 | 37948 ft | 459 kts | 212° |
| 2026-05-07 17:15 | 9.49805 | -31.45906 | 37950 ft | 459 kts | 212° |
| 2026-05-07 17:16 | 9.44173 | -31.48987 | 37950 ft | 459 kts | 212° |
| 2026-05-07 17:16 | 9.38538 | -31.52070 | 37951 ft | 459 kts | 212° |
| 2026-05-07 17:17 | 9.32931 | -31.55136 | 37945 ft | 460 kts | 212° |
| 2026-05-07 17:17 | 9.27306 | -31.58212 | 37946 ft | 460 kts | 212° |
| 2026-05-07 17:18 | 9.21655 | -31.61300 | 37944 ft | 460 kts | 212° |
| 2026-05-07 17:18 | 9.16035 | -31.64371 | 37947 ft | 460 kts | 212° |
| 2026-05-07 17:19 | 9.10404 | -31.67447 | 37945 ft | 460 kts | 212° |
| 2026-05-07 17:19 | 9.04780 | -31.70517 | 37944 ft | 460 kts | 212° |
| 2026-05-07 17:20 | 8.99125 | -31.73606 | 37940 ft | 461 kts | 212° |
| 2026-05-07 17:20 | 8.93458 | -31.76698 | 37943 ft | 461 kts | 212° |
| 2026-05-07 17:21 | 8.87846 | -31.79757 | 37937 ft | 461 kts | 212° |
| 2026-05-07 17:21 | 8.82161 | -31.82856 | 37939 ft | 462 kts | 212° |
| 2026-05-07 17:22 | 8.76512 | -31.85934 | 37939 ft | 462 kts | 212° |
| 2026-05-07 17:22 | 8.70883 | -31.89000 | 37939 ft | 462 kts | 212° |
| 2026-05-07 17:23 | 8.65224 | -31.92087 | 37938 ft | 462 kts | 211° |
| 2026-05-07 17:23 | 8.59560 | -31.95169 | 37937 ft | 462 kts | 211° |
| 2026-05-07 17:24 | 8.53878 | -31.98260 | 37935 ft | 462 kts | 211° |
| 2026-05-07 17:24 | 8.48226 | -32.01334 | 37940 ft | 462 kts | 211° |
| 2026-05-07 17:25 | 8.42555 | -32.04418 | 37937 ft | 462 kts | 211° |
| 2026-05-07 17:25 | 8.36885 | -32.07500 | 37934 ft | 462 kts | 211° |
| 2026-05-07 17:26 | 8.31209 | -32.10588 | 37937 ft | 464 kts | 211° |
| 2026-05-07 17:26 | 8.25532 | -32.13671 | 37938 ft | 464 kts | 211° |
| 2026-05-07 17:27 | 8.19865 | -32.16749 | 37931 ft | 464 kts | 211° |
| 2026-05-07 17:27 | 8.14153 | -32.19850 | 37933 ft | 464 kts | 211° |
| 2026-05-07 17:28 | 8.08489 | -32.22924 | 37934 ft | 464 kts | 211° |
| 2026-05-07 17:28 | 8.02806 | -32.26008 | 37934 ft | 464 kts | 211° |
| 2026-05-07 17:29 | 7.97110 | -32.29102 | 37937 ft | 464 kts | 211° |
| 2026-05-07 17:29 | 7.91421 | -32.32185 | 37925 ft | 465 kts | 211° |
| 2026-05-07 17:30 | 7.85737 | -32.35265 | 37936 ft | 464 kts | 211° |
| 2026-05-07 17:30 | 7.80022 | -32.38360 | 37929 ft | 465 kts | 211° |
| 2026-05-07 17:31 | 7.74359 | -32.41428 | 37936 ft | 465 kts | 211° |
| 2026-05-07 17:31 | 7.68663 | -32.44514 | 37928 ft | 465 kts | 211° |
| 2026-05-07 17:32 | 7.62962 | -32.47605 | 37925 ft | 466 kts | 210° |
| 2026-05-07 17:32 | 7.57246 | -32.50697 | 37938 ft | 466 kts | 210° |
| 2026-05-07 17:33 | 7.51510 | -32.53800 | 37920 ft | 466 kts | 210° |
| 2026-05-07 17:33 | 7.45779 | -32.56900 | 37932 ft | 466 kts | 210° |
| 2026-05-07 17:34 | 7.40089 | -32.59976 | 37932 ft | 466 kts | 210° |
| 2026-05-07 17:34 | 7.34374 | -32.63066 | 37916 ft | 467 kts | 210° |
| 2026-05-07 17:35 | 7.28626 | -32.66175 | 37916 ft | 468 kts | 210° |
| 2026-05-07 17:35 | 7.22900 | -32.69268 | 37928 ft | 468 kts | 210° |
| 2026-05-07 17:36 | 7.17141 | -32.72378 | 37932 ft | 468 kts | 210° |
| 2026-05-07 17:36 | 7.11411 | -32.75472 | 37932 ft | 468 kts | 210° |
| 2026-05-07 17:37 | 7.05698 | -32.78557 | 37923 ft | 468 kts | 210° |
| 2026-05-07 17:37 | 6.99937 | -32.81668 | 37923 ft | 469 kts | 210° |
| 2026-05-07 17:38 | 6.94178 | -32.84776 | 37922 ft | 469 kts | 210° |
| 2026-05-07 17:38 | 6.88435 | -32.87873 | 37925 ft | 469 kts | 210° |
| 2026-05-07 17:39 | 6.82675 | -32.90979 | 37914 ft | 470 kts | 210° |
| 2026-05-07 17:39 | 6.76906 | -32.94089 | 37920 ft | 470 kts | 210° |
| 2026-05-07 17:40 | 6.71134 | -32.97201 | 37913 ft | 470 kts | 210° |
| 2026-05-07 17:40 | 6.65374 | -33.00308 | 37920 ft | 470 kts | 210° |
| 2026-05-07 17:41 | 6.59651 | -33.03390 | 37914 ft | 470 kts | 210° |
| 2026-05-07 17:41 | 6.53871 | -33.06504 | 37926 ft | 470 kts | 210° |
| 2026-05-07 17:42 | 6.48121 | -33.09603 | 37925 ft | 470 kts | 210° |
| 2026-05-07 17:42 | 6.42359 | -33.12709 | 37917 ft | 470 kts | 210° |
| 2026-05-07 17:43 | 6.36593 | -33.15816 | 37923 ft | 470 kts | 210° |
| 2026-05-07 17:43 | 6.30838 | -33.18905 | 37922 ft | 470 kts | 209° |
| 2026-05-07 17:44 | 6.25026 | -33.22000 | 37915 ft | 470 kts | 209° |
| 2026-05-07 17:44 | 6.19255 | -33.25080 | 37918 ft | 470 kts | 209° |
| 2026-05-07 17:45 | 6.13476 | -33.28167 | 37907 ft | 470 kts | 209° |
| 2026-05-07 17:45 | 6.07699 | -33.31255 | 37922 ft | 470 kts | 209° |
| 2026-05-07 17:46 | 6.01940 | -33.34333 | 37917 ft | 470 kts | 209° |
| 2026-05-07 17:46 | 5.96164 | -33.37420 | 37915 ft | 470 kts | 209° |
| 2026-05-07 17:47 | 5.90375 | -33.40513 | 37920 ft | 470 kts | 209° |
| 2026-05-07 17:47 | 5.84589 | -33.43604 | 37908 ft | 470 kts | 209° |
| 2026-05-07 17:48 | 5.78832 | -33.46679 | 37922 ft | 470 kts | 209° |
| 2026-05-07 17:48 | 5.73046 | -33.49767 | 37922 ft | 470 kts | 209° |
| 2026-05-07 17:49 | 5.67277 | -33.52849 | 37919 ft | 469 kts | 209° |
| 2026-05-07 17:49 | 5.61545 | -33.55907 | 37913 ft | 468 kts | 209° |
| 2026-05-07 17:50 | 5.55784 | -33.58979 | 37918 ft | 468 kts | 209° |
| 2026-05-07 17:50 | 5.50028 | -33.62049 | 37919 ft | 468 kts | 209° |
| 2026-05-07 17:51 | 5.44265 | -33.65122 | 37913 ft | 468 kts | 209° |
| 2026-05-07 17:51 | 5.38519 | -33.68186 | 37914 ft | 468 kts | 209° |
| 2026-05-07 17:52 | 5.32772 | -33.71250 | 37915 ft | 469 kts | 208° |
| 2026-05-07 17:52 | 5.27012 | -33.74320 | 37906 ft | 469 kts | 208° |
| 2026-05-07 17:53 | 5.21224 | -33.77403 | 37905 ft | 469 kts | 209° |
| 2026-05-07 17:53 | 5.15462 | -33.80473 | 37916 ft | 469 kts | 209° |
| 2026-05-07 17:54 | 5.09695 | -33.83545 | 37915 ft | 469 kts | 209° |
| 2026-05-07 17:54 | 5.03959 | -33.86601 | 37907 ft | 469 kts | 208° |
| 2026-05-07 17:55 | 4.98170 | -33.89684 | 37910 ft | 470 kts | 208° |
| 2026-05-07 17:55 | 4.92385 | -33.92763 | 37906 ft | 470 kts | 208° |
| 2026-05-07 17:56 | 4.86615 | -33.95834 | 37910 ft | 470 kts | 208° |
| 2026-05-07 17:56 | 4.80860 | -33.98897 | 37905 ft | 470 kts | 208° |
| 2026-05-07 17:57 | 4.76054 | -34.01455 | 37912 ft | 470 kts | 208° |
| 2026-05-07 17:57 | 4.69447 | -34.04974 | 37911 ft | 470 kts | 208° |
| 2026-05-07 17:58 | 4.64636 | -34.07533 | 37909 ft | 470 kts | 208° |
| 2026-05-07 17:58 | 4.61977 | -34.08948 | 37908 ft | 470 kts | 208° |
| 2026-05-07 17:59 | 4.56174 | -34.12039 | 37905 ft | 470 kts | 208° |
| 2026-05-07 17:59 | 4.49479 | -34.15601 | 37909 ft | 470 kts | 208° |
| 2026-05-07 18:00 | 4.44634 | -34.18183 | 37911 ft | 470 kts | 208° |
| 2026-05-07 18:00 | 4.38901 | -34.21249 | 37909 ft | 470 kts | 208° |
| 2026-05-07 18:01 | 4.33124 | -34.24341 | 37910 ft | 470 kts | 208° |
| 2026-05-07 18:01 | 4.27350 | -34.27432 | 37910 ft | 470 kts | 208° |
| 2026-05-07 18:02 | 4.18684 | -34.32070 | 37913 ft | 470 kts | 208° |
| 2026-05-07 18:03 | 4.12923 | -34.35154 | 37909 ft | 470 kts | 208° |
| 2026-05-07 18:03 | 4.07144 | -34.38248 | 37910 ft | 470 kts | 208° |
| 2026-05-07 18:04 | 4.01355 | -34.41346 | 37916 ft | 470 kts | 208° |
| 2026-05-07 18:04 | 3.95580 | -34.44435 | 37917 ft | 470 kts | 208° |
| 2026-05-07 18:05 | 3.89820 | -34.47516 | 37908 ft | 470 kts | 208° |
| 2026-05-07 18:05 | 3.84035 | -34.50611 | 37915 ft | 470 kts | 208° |
| 2026-05-07 18:06 | 3.78270 | -34.53695 | 37914 ft | 470 kts | 208° |
| 2026-05-07 18:06 | 3.72501 | -34.56783 | 37915 ft | 471 kts | 208° |
| 2026-05-07 18:07 | 3.66733 | -34.59867 | 37913 ft | 471 kts | 208° |
| 2026-05-07 18:07 | 3.60962 | -34.62956 | 37915 ft | 471 kts | 208° |
| 2026-05-07 18:08 | 3.55177 | -34.66052 | 37913 ft | 471 kts | 208° |
| 2026-05-07 18:08 | 3.49389 | -34.69139 | 37916 ft | 471 kts | 208° |
| 2026-05-07 18:09 | 3.43637 | -34.72202 | 37913 ft | 471 kts | 208° |
| 2026-05-07 18:09 | 3.37853 | -34.75289 | 37912 ft | 471 kts | 207° |
| 2026-05-07 18:10 | 3.32083 | -34.78369 | 37903 ft | 471 kts | 207° |
| 2026-05-07 18:10 | 3.26280 | -34.81467 | 37906 ft | 471 kts | 207° |
| 2026-05-07 18:11 | 3.20511 | -34.84547 | 37920 ft | 471 kts | 207° |
| 2026-05-07 18:11 | 3.14753 | -34.87622 | 37914 ft | 471 kts | 207° |
| 2026-05-07 18:12 | 3.08942 | -34.90724 | 37918 ft | 471 kts | 208° |
| 2026-05-07 18:12 | 3.03177 | -34.93802 | 37917 ft | 471 kts | 208° |
| 2026-05-07 18:13 | 2.97401 | -34.96886 | 37916 ft | 471 kts | 208° |
| 2026-05-07 18:13 | 2.91650 | -34.99956 | 37908 ft | 471 kts | 208° |
| 2026-05-07 18:14 | 2.85865 | -35.03045 | 37917 ft | 471 kts | 208° |
| 2026-05-07 18:14 | 2.80084 | -35.06133 | 37917 ft | 471 kts | 208° |
| 2026-05-07 18:15 | 2.74296 | -35.09226 | 37917 ft | 471 kts | 208° |
| 2026-05-07 18:15 | 2.68496 | -35.12318 | 37913 ft | 471 kts | 207° |
| 2026-05-07 18:16 | 2.62707 | -35.15379 | 37914 ft | 471 kts | 207° |
| 2026-05-07 18:16 | 2.56919 | -35.18443 | 37920 ft | 472 kts | 207° |
| 2026-05-07 18:17 | 2.51105 | -35.21525 | 37919 ft | 472 kts | 207° |
| 2026-05-07 18:17 | 2.45314 | -35.24596 | 37916 ft | 471 kts | 208° |
| 2026-05-07 18:18 | 2.39531 | -35.27665 | 37916 ft | 470 kts | 208° |
| 2026-05-07 18:18 | 2.33749 | -35.30733 | 37913 ft | 470 kts | 208° |
| 2026-05-07 18:19 | 2.27961 | -35.33805 | 37920 ft | 470 kts | 208° |
| 2026-05-07 18:19 | 2.22186 | -35.36869 | 37919 ft | 470 kts | 208° |
| 2026-05-07 18:20 | 2.16405 | -35.39935 | 37924 ft | 470 kts | 208° |
| 2026-05-07 18:20 | 2.10641 | -35.42993 | 37920 ft | 468 kts | 208° |
| 2026-05-07 18:21 | 2.04887 | -35.46045 | 37922 ft | 468 kts | 208° |
| 2026-05-07 18:21 | 1.99182 | -35.49071 | 37922 ft | 468 kts | 208° |
| 2026-05-07 18:22 | 1.93439 | -35.52119 | 37922 ft | 467 kts | 207° |
| 2026-05-07 18:22 | 1.87661 | -35.55182 | 37918 ft | 467 kts | 207° |
| 2026-05-07 18:23 | 1.81939 | -35.58217 | 37919 ft | 466 kts | 207° |
| 2026-05-07 18:23 | 1.76193 | -35.61263 | 37926 ft | 466 kts | 207° |
| 2026-05-07 18:24 | 1.70467 | -35.64297 | 37925 ft | 466 kts | 207° |
| 2026-05-07 18:24 | 1.64734 | -35.67336 | 37925 ft | 466 kts | 207° |
| 2026-05-07 18:25 | 1.59027 | -35.70361 | 37921 ft | 466 kts | 207° |
| 2026-05-07 18:25 | 1.53278 | -35.73409 | 37916 ft | 467 kts | 207° |
| 2026-05-07 18:26 | 1.47538 | -35.76453 | 37918 ft | 469 kts | 207° |
| 2026-05-07 18:26 | 1.41736 | -35.79528 | 37918 ft | 470 kts | 207° |
| 2026-05-07 18:27 | 1.35975 | -35.82579 | 37923 ft | 470 kts | 207° |
| 2026-05-07 18:27 | 1.30178 | -35.85651 | 37925 ft | 470 kts | 207° |
| 2026-05-07 18:28 | 1.24393 | -35.88716 | 37922 ft | 470 kts | 207° |
| 2026-05-07 18:28 | 1.18619 | -35.91774 | 37923 ft | 469 kts | 207° |
| 2026-05-07 18:29 | 1.12861 | -35.94825 | 37920 ft | 469 kts | 207° |
| 2026-05-07 18:29 | 1.07091 | -35.97883 | 37923 ft | 469 kts | 207° |
| 2026-05-07 18:30 | 1.01322 | -36.00940 | 37919 ft | 469 kts | 207° |
| 2026-05-07 18:30 | 0.95548 | -36.04000 | 37923 ft | 470 kts | 207° |
| 2026-05-07 18:31 | 0.89754 | -36.07068 | 37928 ft | 469 kts | 207° |
| 2026-05-07 18:31 | 0.84006 | -36.10112 | 37924 ft | 468 kts | 207° |
| 2026-05-07 18:32 | 0.78280 | -36.13146 | 37923 ft | 468 kts | 207° |
| 2026-05-07 18:32 | 0.72513 | -36.16201 | 37924 ft | 468 kts | 207° |
| 2026-05-07 18:33 | 0.66756 | -36.19251 | 37923 ft | 468 kts | 207° |
| 2026-05-07 18:33 | 0.61024 | -36.22287 | 37915 ft | 468 kts | 207° |
| 2026-05-07 18:34 | 0.55222 | -36.25361 | 37927 ft | 473 kts | 207° |
| 2026-05-07 18:34 | 0.49417 | -36.28437 | 37925 ft | 475 kts | 207° |
| 2026-05-07 18:35 | 0.43581 | -36.31527 | 37926 ft | 475 kts | 207° |
| 2026-05-07 18:35 | 0.37740 | -36.34620 | 37923 ft | 475 kts | 207° |
| 2026-05-07 18:36 | 0.31897 | -36.37714 | 37931 ft | 475 kts | 207° |
| 2026-05-07 18:36 | 0.26032 | -36.40818 | 37926 ft | 478 kts | 207° |
| 2026-05-07 18:37 | 0.20148 | -36.43935 | 37928 ft | 479 kts | 207° |
| 2026-05-07 18:37 | 0.14267 | -36.47051 | 37927 ft | 479 kts | 207° |
| 2026-05-07 18:38 | 0.08335 | -36.50193 | 37932 ft | 479 kts | 207° |
| 2026-05-07 18:38 | 0.02475 | -36.53297 | 37931 ft | 479 kts | 207° |
| 2026-05-07 18:39 | -0.03434 | -36.56426 | 37929 ft | 481 kts | 207° |
| 2026-05-07 18:39 | -0.09351 | -36.59560 | 37931 ft | 481 kts | 207° |
| 2026-05-07 18:40 | -0.15291 | -36.62707 | 37930 ft | 481 kts | 207° |
| 2026-05-07 18:40 | -0.21177 | -36.65824 | 37932 ft | 482 kts | 207° |
| 2026-05-07 18:41 | -0.27109 | -36.68966 | 37931 ft | 481 kts | 207° |
| 2026-05-07 18:41 | -0.33005 | -36.72090 | 37930 ft | 481 kts | 207° |
| 2026-05-07 18:42 | -0.38961 | -36.75245 | 37928 ft | 481 kts | 207° |
| 2026-05-07 18:42 | -0.44856 | -36.78369 | 37928 ft | 481 kts | 207° |
| 2026-05-07 18:43 | -0.50774 | -36.81503 | 37932 ft | 482 kts | 207° |
| 2026-05-07 18:43 | -0.56708 | -36.84646 | 37930 ft | 482 kts | 207° |
| 2026-05-07 18:44 | -0.62630 | -36.87784 | 37921 ft | 482 kts | 207° |
| 2026-05-07 18:44 | -0.68573 | -36.90933 | 37927 ft | 484 kts | 207° |
| 2026-05-07 18:45 | -0.74523 | -36.94088 | 37931 ft | 484 kts | 207° |
| 2026-05-07 18:45 | -0.80448 | -36.97231 | 37931 ft | 484 kts | 207° |
| 2026-05-07 18:46 | -0.86388 | -37.00382 | 37938 ft | 482 kts | 207° |
| 2026-05-07 18:46 | -0.92314 | -37.03525 | 37930 ft | 481 kts | 207° |
| 2026-05-07 18:47 | -0.97348 | -37.05929 | 37926 ft | 485 kts | 202° |
| 2026-05-07 18:47 | -1.03540 | -37.08599 | 37932 ft | 485 kts | 202° |
| 2026-05-07 18:48 | -1.09728 | -37.11262 | 37935 ft | 485 kts | 202° |
| 2026-05-07 18:48 | -1.15933 | -37.13939 | 37934 ft | 485 kts | 202° |
| 2026-05-07 18:49 | -1.22141 | -37.16621 | 37929 ft | 485 kts | 202° |
| 2026-05-07 18:49 | -1.28372 | -37.19314 | 37930 ft | 488 kts | 202° |
| 2026-05-07 18:50 | -1.34596 | -37.22004 | 37929 ft | 488 kts | 202° |
| 2026-05-07 18:50 | -1.40840 | -37.24703 | 37935 ft | 488 kts | 203° |
| 2026-05-07 18:51 | -1.47069 | -37.27397 | 37928 ft | 488 kts | 203° |
| 2026-05-07 18:51 | -1.53293 | -37.30089 | 37929 ft | 488 kts | 202° |
| 2026-05-07 18:52 | -1.59519 | -37.32783 | 37929 ft | 489 kts | 202° |
| 2026-05-07 18:52 | -1.65760 | -37.35485 | 37928 ft | 489 kts | 202° |
| 2026-05-07 18:53 | -1.72028 | -37.38195 | 37927 ft | 490 kts | 202° |
| 2026-05-07 18:53 | -1.78275 | -37.40892 | 37928 ft | 489 kts | 202° |
| 2026-05-07 18:54 | -1.84524 | -37.43593 | 37928 ft | 490 kts | 203° |
| 2026-05-07 18:54 | -1.90800 | -37.46310 | 37928 ft | 492 kts | 202° |
| 2026-05-07 18:55 | -1.97094 | -37.49031 | 37927 ft | 493 kts | 203° |
| 2026-05-07 18:55 | -2.03397 | -37.51759 | 37926 ft | 493 kts | 203° |
| 2026-05-07 18:56 | -2.09669 | -37.54475 | 37922 ft | 494 kts | 203° |
| 2026-05-07 18:56 | -2.15985 | -37.57204 | 37922 ft | 496 kts | 204° |
| 2026-05-07 18:57 | -2.22342 | -37.59957 | 37918 ft | 497 kts | 204° |
| 2026-05-07 18:57 | -2.28693 | -37.62709 | 37920 ft | 497 kts | 204° |
| 2026-05-07 18:58 | -2.35031 | -37.65453 | 37922 ft | 497 kts | 204° |
| 2026-05-07 18:58 | -2.41371 | -37.68198 | 37923 ft | 498 kts | 204° |
| 2026-05-07 18:59 | -2.47689 | -37.70932 | 37920 ft | 497 kts | 204° |
| 2026-05-07 18:59 | -2.54035 | -37.73682 | 37920 ft | 496 kts | 204° |
| 2026-05-07 19:00 | -2.60390 | -37.76435 | 37919 ft | 497 kts | 204° |
| 2026-05-07 19:00 | -2.66751 | -37.79190 | 37918 ft | 497 kts | 204° |
| 2026-05-07 19:01 | -2.73083 | -37.81933 | 37922 ft | 497 kts | 204° |
| 2026-05-07 19:01 | -2.79430 | -37.84683 | 37917 ft | 496 kts | 204° |
| 2026-05-07 19:02 | -2.85790 | -37.87441 | 37918 ft | 497 kts | 204° |
| 2026-05-07 19:02 | -2.92123 | -37.90187 | 37912 ft | 497 kts | 204° |
| 2026-05-07 19:03 | -2.98427 | -37.92924 | 37915 ft | 496 kts | 204° |
| 2026-05-07 19:03 | -3.04799 | -37.95692 | 37918 ft | 496 kts | 204° |
| 2026-05-07 19:04 | -3.11101 | -37.98427 | 37915 ft | 496 kts | 204° |
| 2026-05-07 19:04 | -3.17355 | -38.01283 | 37913 ft | 495 kts | 205° |
| 2026-05-07 19:05 | -3.23602 | -38.04197 | 37911 ft | 495 kts | 205° |
| 2026-05-07 19:05 | -3.29854 | -38.07105 | 37914 ft | 495 kts | 205° |
| 2026-05-07 19:06 | -3.36089 | -38.10000 | 37920 ft | 496 kts | 205° |
| 2026-05-07 19:06 | -3.45486 | -38.14365 | 37918 ft | 495 kts | 205° |
| 2026-05-07 19:07 | -3.51722 | -38.17263 | 37906 ft | 495 kts | 205° |
| 2026-05-07 19:07 | -3.58006 | -38.20104 | 37913 ft | 494 kts | 204° |
| 2026-05-07 19:08 | -3.64283 | -38.22854 | 37908 ft | 492 kts | 204° |
| 2026-05-07 19:08 | -3.70560 | -38.25625 | 37906 ft | 491 kts | 205° |
| 2026-05-07 19:09 | -3.76799 | -38.28392 | 37910 ft | 491 kts | 205° |
| 2026-05-07 19:09 | -3.83040 | -38.31163 | 37912 ft | 491 kts | 205° |
| 2026-05-07 19:10 | -3.89294 | -38.33937 | 37917 ft | 491 kts | 205° |
| 2026-05-07 19:10 | -3.95533 | -38.36698 | 37908 ft | 490 kts | 205° |
| 2026-05-07 19:11 | -4.01739 | -38.39458 | 37909 ft | 490 kts | 205° |
| 2026-05-07 19:11 | -4.07959 | -38.42232 | 37907 ft | 490 kts | 205° |
| 2026-05-07 19:12 | -4.14204 | -38.44999 | 37906 ft | 488 kts | 205° |
| 2026-05-07 19:12 | -4.20379 | -38.47751 | 37914 ft | 487 kts | 205° |
| 2026-05-07 19:13 | -4.26575 | -38.50507 | 37908 ft | 487 kts | 205° |
| 2026-05-07 19:13 | -4.32683 | -38.53476 | 37900 ft | 486 kts | 210° |
| 2026-05-07 19:14 | -4.38611 | -38.56707 | 37910 ft | 486 kts | 210° |
| 2026-05-07 19:14 | -4.44508 | -38.59934 | 37903 ft | 486 kts | 209° |
| 2026-05-07 19:15 | -4.50660 | -38.62847 | 37904 ft | 488 kts | 204° |
| 2026-05-07 19:15 | -4.57039 | -38.65209 | 37905 ft | 489 kts | 201° |
| 2026-05-07 19:16 | -4.63421 | -38.67481 | 37907 ft | 489 kts | 201° |
| 2026-05-07 19:16 | -4.69848 | -38.69771 | 37910 ft | 489 kts | 201° |
| 2026-05-07 19:17 | -4.76278 | -38.72068 | 37910 ft | 489 kts | 201° |
| 2026-05-07 19:17 | -4.82688 | -38.74362 | 37907 ft | 489 kts | 201° |
| 2026-05-07 19:18 | -4.89073 | -38.76648 | 37907 ft | 489 kts | 201° |
| 2026-05-07 19:18 | -4.95487 | -38.78939 | 37904 ft | 489 kts | 201° |
| 2026-05-07 19:19 | -5.01916 | -38.81242 | 37907 ft | 489 kts | 201° |
| 2026-05-07 19:19 | -5.08281 | -38.83524 | 37908 ft | 487 kts | 201° |
| 2026-05-07 19:20 | -5.14659 | -38.85817 | 37906 ft | 485 kts | 201° |
| 2026-05-07 19:20 | -5.21042 | -38.88115 | 37909 ft | 485 kts | 201° |
| 2026-05-07 19:21 | -5.27402 | -38.90405 | 37906 ft | 485 kts | 201° |
| 2026-05-07 19:21 | -5.33753 | -38.92690 | 37911 ft | 485 kts | 201° |
| 2026-05-07 19:22 | -5.40100 | -38.94968 | 37906 ft | 485 kts | 202° |
| 2026-05-07 19:22 | -5.46438 | -38.97255 | 37901 ft | 485 kts | 202° |
| 2026-05-07 19:23 | -5.52779 | -38.99542 | 37906 ft | 485 kts | 202° |
| 2026-05-07 19:23 | -5.59132 | -39.01833 | 37907 ft | 485 kts | 202° |
| 2026-05-07 19:24 | -5.65465 | -39.04116 | 37905 ft | 484 kts | 202° |
| 2026-05-07 19:24 | -5.71804 | -39.06407 | 37906 ft | 484 kts | 202° |
| 2026-05-07 19:25 | -5.78153 | -39.08694 | 37909 ft | 484 kts | 202° |
| 2026-05-07 19:25 | -5.84485 | -39.10958 | 37907 ft | 484 kts | 202° |
| 2026-05-07 19:26 | -5.90828 | -39.13233 | 37921 ft | 483 kts | 202° |
| 2026-05-07 19:26 | -5.97140 | -39.15499 | 37918 ft | 480 kts | 202° |
| 2026-05-07 19:27 | -6.03415 | -39.17759 | 37916 ft | 480 kts | 202° |
| 2026-05-07 19:27 | -6.09719 | -39.20029 | 37916 ft | 480 kts | 202° |
| 2026-05-07 19:28 | -6.15974 | -39.22284 | 37920 ft | 480 kts | 202° |
| 2026-05-07 19:28 | -6.22269 | -39.24555 | 37908 ft | 480 kts | 202° |
| 2026-05-07 19:29 | -6.28552 | -39.26820 | 37917 ft | 480 kts | 202° |
| 2026-05-07 19:29 | -6.34850 | -39.29081 | 37921 ft | 480 kts | 202° |
| 2026-05-07 19:30 | -6.41137 | -39.31339 | 37924 ft | 480 kts | 202° |
| 2026-05-07 19:30 | -6.47447 | -39.33613 | 37929 ft | 480 kts | 202° |
| 2026-05-07 19:31 | -6.53725 | -39.35876 | 37923 ft | 481 kts | 203° |
| 2026-05-07 19:31 | -6.60023 | -39.38151 | 37923 ft | 481 kts | 203° |
| 2026-05-07 19:32 | -6.66318 | -39.40425 | 37930 ft | 481 kts | 203° |
| 2026-05-07 19:32 | -6.72602 | -39.42697 | 37923 ft | 481 kts | 203° |
| 2026-05-07 19:33 | -6.78908 | -39.44975 | 37921 ft | 480 kts | 203° |
| 2026-05-07 19:33 | -6.85192 | -39.47253 | 37920 ft | 479 kts | 203° |
| 2026-05-07 19:34 | -6.91471 | -39.49524 | 37924 ft | 479 kts | 203° |
| 2026-05-07 19:34 | -6.97747 | -39.51779 | 37929 ft | 479 kts | 203° |
| 2026-05-07 19:35 | -7.04003 | -39.54033 | 37939 ft | 479 kts | 203° |
| 2026-05-07 19:35 | -7.10247 | -39.56287 | 37933 ft | 477 kts | 203° |
| 2026-05-07 19:36 | -7.16494 | -39.58547 | 37945 ft | 476 kts | 203° |
| 2026-05-07 19:36 | -7.22726 | -39.60802 | 37939 ft | 475 kts | 203° |
| 2026-05-07 19:37 | -7.28949 | -39.63055 | 37949 ft | 474 kts | 203° |
| 2026-05-07 19:37 | -7.35147 | -39.65298 | 37952 ft | 473 kts | 203° |
| 2026-05-07 19:38 | -7.41348 | -39.67545 | 37950 ft | 473 kts | 203° |
| 2026-05-07 19:38 | -7.47533 | -39.69787 | 37949 ft | 473 kts | 203° |
| 2026-05-07 19:39 | -7.53720 | -39.72029 | 37950 ft | 473 kts | 203° |
| 2026-05-07 19:39 | -7.58856 | -39.73892 | 37948 ft | 473 kts | 203° |
| 2026-05-07 19:40 | -7.66065 | -39.76507 | 37945 ft | 472 kts | 203° |
| 2026-05-07 19:40 | -7.71216 | -39.78375 | 37936 ft | 472 kts | 203° |
| 2026-05-07 19:41 | -7.77396 | -39.80617 | 37938 ft | 472 kts | 203° |
| 2026-05-07 19:41 | -7.83556 | -39.82853 | 37930 ft | 470 kts | 203° |
| 2026-05-07 19:42 | -7.89719 | -39.85093 | 37934 ft | 470 kts | 203° |
| 2026-05-07 19:42 | -7.95888 | -39.87334 | 37931 ft | 470 kts | 203° |
| 2026-05-07 19:43 | -8.02037 | -39.89567 | 37929 ft | 470 kts | 203° |
| 2026-05-07 19:43 | -8.08165 | -39.91794 | 37929 ft | 470 kts | 203° |
| 2026-05-07 19:44 | -8.14323 | -39.94032 | 37927 ft | 470 kts | 203° |
| 2026-05-07 19:44 | -8.20484 | -39.96276 | 37930 ft | 470 kts | 202° |
| 2026-05-07 19:45 | -8.26636 | -39.98513 | 37931 ft | 470 kts | 202° |
| 2026-05-07 19:45 | -8.32777 | -40.00747 | 37930 ft | 470 kts | 202° |
| 2026-05-07 19:46 | -8.38921 | -40.02983 | 37929 ft | 470 kts | 202° |
| 2026-05-07 19:46 | -8.45062 | -40.05224 | 37929 ft | 469 kts | 202° |
| 2026-05-07 19:47 | -8.51184 | -40.07454 | 37929 ft | 468 kts | 202° |
| 2026-05-07 19:47 | -8.57289 | -40.09676 | 37926 ft | 468 kts | 202° |
| 2026-05-07 19:48 | -8.63449 | -40.11922 | 37932 ft | 468 kts | 202° |
| 2026-05-07 19:48 | -8.69550 | -40.14147 | 37934 ft | 468 kts | 202° |
| 2026-05-07 19:49 | -8.75697 | -40.16391 | 37928 ft | 468 kts | 202° |
| 2026-05-07 19:49 | -8.81802 | -40.18619 | 37927 ft | 468 kts | 202° |
| 2026-05-07 19:50 | -8.87927 | -40.20855 | 37931 ft | 468 kts | 202° |
| 2026-05-07 19:50 | -8.94053 | -40.23093 | 37929 ft | 468 kts | 202° |
| 2026-05-07 19:51 | -9.00186 | -40.25335 | 37933 ft | 468 kts | 202° |
| 2026-05-07 19:51 | -9.06280 | -40.27564 | 37932 ft | 467 kts | 202° |
| 2026-05-07 19:52 | -9.12380 | -40.29796 | 37927 ft | 467 kts | 202° |
| 2026-05-07 19:52 | -9.18522 | -40.32046 | 37933 ft | 467 kts | 202° |
| 2026-05-07 19:53 | -9.24598 | -40.34274 | 37949 ft | 467 kts | 202° |
| 2026-05-07 19:53 | -9.30692 | -40.36509 | 37947 ft | 466 kts | 202° |
| 2026-05-07 19:54 | -9.36802 | -40.38741 | 37946 ft | 466 kts | 202° |
| 2026-05-07 19:54 | -9.42930 | -40.40977 | 37946 ft | 466 kts | 202° |
| 2026-05-07 19:55 | -9.49027 | -40.43210 | 37944 ft | 466 kts | 202° |
| 2026-05-07 19:55 | -9.55081 | -40.45430 | 37946 ft | 465 kts | 202° |
| 2026-05-07 19:56 | -9.61162 | -40.47666 | 37941 ft | 465 kts | 202° |
| 2026-05-07 19:56 | -9.67242 | -40.49901 | 37947 ft | 465 kts | 202° |
| 2026-05-07 19:57 | -9.73333 | -40.52127 | 37951 ft | 465 kts | 202° |
| 2026-05-07 19:57 | -9.79429 | -40.54355 | 37965 ft | 464 kts | 202° |
| 2026-05-07 19:58 | -9.85487 | -40.56576 | 37951 ft | 464 kts | 202° |
| 2026-05-07 19:58 | -9.91549 | -40.58804 | 37964 ft | 464 kts | 202° |
| 2026-05-07 19:59 | -9.97635 | -40.61043 | 37964 ft | 464 kts | 202° |
| 2026-05-07 19:59 | -10.03690 | -40.63271 | 37972 ft | 464 kts | 202° |
| 2026-05-07 20:00 | -10.09755 | -40.65501 | 37981 ft | 462 kts | 202° |
| 2026-05-07 20:00 | -10.15785 | -40.67722 | 38013 ft | 462 kts | 202° |
| 2026-05-07 20:01 | -10.18830 | -40.68845 | 38148 ft | 461 kts | 203° |
| 2026-05-07 20:01 | -10.21821 | -40.69947 | 38291 ft | 461 kts | 202° |
| 2026-05-07 20:01 | -10.24822 | -40.71054 | 38427 ft | 461 kts | 202° |
| 2026-05-07 20:01 | -10.27865 | -40.72176 | 38564 ft | 460 kts | 202° |
| 2026-05-07 20:02 | -10.30845 | -40.73275 | 38702 ft | 460 kts | 202° |
| 2026-05-07 20:02 | -10.33861 | -40.74386 | 38815 ft | 458 kts | 203° |
| 2026-05-07 20:02 | -10.36874 | -40.75497 | 38931 ft | 457 kts | 203° |
| 2026-05-07 20:02 | -10.39843 | -40.76593 | 39043 ft | 457 kts | 203° |
| 2026-05-07 20:03 | -10.42852 | -40.77705 | 39169 ft | 457 kts | 203° |
| 2026-05-07 20:03 | -10.45843 | -40.78811 | 39276 ft | 456 kts | 203° |
| 2026-05-07 20:03 | -10.48802 | -40.79904 | 39394 ft | 456 kts | 203° |
| 2026-05-07 20:03 | -10.51801 | -40.81013 | 39513 ft | 456 kts | 203° |
| 2026-05-07 20:04 | -10.54766 | -40.82110 | 39638 ft | 456 kts | 203° |
| 2026-05-07 20:04 | -10.57761 | -40.83219 | 39756 ft | 455 kts | 203° |
| 2026-05-07 20:04 | -10.60710 | -40.84311 | 39885 ft | 454 kts | 203° |
| 2026-05-07 20:04 | -10.63693 | -40.85415 | 39995 ft | 453 kts | 203° |
| 2026-05-07 20:05 | -10.69588 | -40.87588 | 39998 ft | 452 kts | 202° |
| 2026-05-07 20:05 | -10.75518 | -40.89771 | 40002 ft | 452 kts | 202° |
| 2026-05-07 20:06 | -10.81408 | -40.91946 | 40003 ft | 453 kts | 202° |
| 2026-05-07 20:06 | -10.87328 | -40.94139 | 40008 ft | 452 kts | 202° |
| 2026-05-07 20:07 | -10.93236 | -40.96329 | 40007 ft | 451 kts | 202° |
| 2026-05-07 20:07 | -10.99110 | -40.98506 | 40015 ft | 451 kts | 202° |
| 2026-05-07 20:08 | -11.04996 | -41.00689 | 40021 ft | 451 kts | 202° |
| 2026-05-07 20:08 | -11.10918 | -41.02889 | 40035 ft | 451 kts | 202° |
| 2026-05-07 20:09 | -11.16808 | -41.05063 | 40033 ft | 450 kts | 202° |
| 2026-05-07 20:10 | -11.25633 | -41.08327 | 40036 ft | 449 kts | 202° |
| 2026-05-07 20:10 | -11.31505 | -41.10506 | 40034 ft | 449 kts | 202° |
| 2026-05-07 20:11 | -11.37355 | -41.12680 | 40049 ft | 449 kts | 202° |
| 2026-05-07 20:11 | -11.43213 | -41.14861 | 40037 ft | 448 kts | 202° |
| 2026-05-07 20:12 | -11.49065 | -41.17039 | 40039 ft | 448 kts | 202° |
| 2026-05-07 20:12 | -11.54928 | -41.19210 | 40032 ft | 448 kts | 202° |
| 2026-05-07 20:13 | -11.60798 | -41.21380 | 40038 ft | 448 kts | 202° |
| 2026-05-07 20:13 | -11.66660 | -41.23555 | 40049 ft | 448 kts | 202° |
| 2026-05-07 20:14 | -11.72529 | -41.25737 | 40042 ft | 448 kts | 202° |
| 2026-05-07 20:14 | -11.78384 | -41.27916 | 40050 ft | 448 kts | 202° |
| 2026-05-07 20:15 | -11.84217 | -41.30088 | 40050 ft | 448 kts | 202° |
| 2026-05-07 20:15 | -11.90063 | -41.32266 | 40047 ft | 447 kts | 202° |
| 2026-05-07 20:16 | -11.95896 | -41.34441 | 40045 ft | 446 kts | 202° |
| 2026-05-07 20:16 | -12.01737 | -41.36621 | 40040 ft | 447 kts | 202° |
| 2026-05-07 20:17 | -12.07570 | -41.38797 | 40040 ft | 447 kts | 202° |
| 2026-05-07 20:17 | -12.13395 | -41.40971 | 40050 ft | 447 kts | 202° |
| 2026-05-07 20:18 | -12.19223 | -41.43148 | 40042 ft | 445 kts | 202° |
| 2026-05-07 20:18 | -12.25054 | -41.45326 | 40044 ft | 445 kts | 202° |
| 2026-05-07 20:19 | -12.30878 | -41.47503 | 40043 ft | 445 kts | 202° |
| 2026-05-07 20:19 | -12.36696 | -41.49679 | 40051 ft | 445 kts | 202° |
| 2026-05-07 20:20 | -12.42505 | -41.51855 | 40056 ft | 443 kts | 202° |
| 2026-05-07 20:20 | -12.48301 | -41.54024 | 40048 ft | 443 kts | 202° |
| 2026-05-07 20:21 | -12.54056 | -41.56179 | 40051 ft | 443 kts | 202° |
| 2026-05-07 20:21 | -12.59859 | -41.58355 | 40051 ft | 443 kts | 202° |
| 2026-05-07 20:22 | -12.65637 | -41.60520 | 40064 ft | 443 kts | 202° |
| 2026-05-07 20:22 | -12.71411 | -41.62687 | 40060 ft | 442 kts | 202° |
| 2026-05-07 20:23 | -12.77214 | -41.64864 | 40057 ft | 442 kts | 202° |
| 2026-05-07 20:23 | -12.82991 | -41.67033 | 40060 ft | 442 kts | 202° |
| 2026-05-07 20:24 | -12.88756 | -41.69199 | 40057 ft | 442 kts | 202° |
| 2026-05-07 20:24 | -12.94535 | -41.71373 | 40060 ft | 442 kts | 201° |
| 2026-05-07 20:25 | -13.00311 | -41.73545 | 40057 ft | 442 kts | 201° |
| 2026-05-07 20:25 | -13.06088 | -41.75717 | 40058 ft | 443 kts | 201° |
| 2026-05-07 20:26 | -13.11875 | -41.77897 | 40041 ft | 443 kts | 201° |
| 2026-05-07 20:26 | -13.17622 | -41.80064 | 40057 ft | 443 kts | 201° |
| 2026-05-07 20:27 | -13.23398 | -41.82239 | 40048 ft | 442 kts | 201° |
| 2026-05-07 20:27 | -13.29205 | -41.84429 | 40049 ft | 442 kts | 201° |
| 2026-05-07 20:28 | -13.34978 | -41.86609 | 40039 ft | 442 kts | 201° |
| 2026-05-07 20:28 | -13.40727 | -41.88782 | 40040 ft | 442 kts | 201° |
| 2026-05-07 20:29 | -13.46499 | -41.90968 | 40035 ft | 442 kts | 201° |
| 2026-05-07 20:29 | -13.52295 | -41.93161 | 40029 ft | 442 kts | 201° |
| 2026-05-07 20:30 | -13.57087 | -41.94970 | 40025 ft | 442 kts | 201° |
| 2026-05-07 20:30 | -13.63823 | -41.97505 | 40024 ft | 441 kts | 201° |
| 2026-05-07 20:31 | -13.69578 | -41.99681 | 40021 ft | 441 kts | 201° |
| 2026-05-07 20:31 | -13.74364 | -42.01493 | 40020 ft | 441 kts | 201° |
| 2026-05-07 20:32 | -13.80164 | -42.03689 | 40019 ft | 441 kts | 201° |
| 2026-05-07 20:32 | -13.85921 | -42.05872 | 40016 ft | 442 kts | 201° |
| 2026-05-07 20:33 | -13.91660 | -42.08051 | 40020 ft | 441 kts | 201° |
| 2026-05-07 20:33 | -13.97406 | -42.10234 | 40018 ft | 440 kts | 200° |
| 2026-05-07 20:34 | -14.03162 | -42.12420 | 40020 ft | 440 kts | 200° |
| 2026-05-07 20:34 | -14.08921 | -42.14610 | 40020 ft | 440 kts | 200° |
| 2026-05-07 20:35 | -14.14660 | -42.16795 | 40017 ft | 440 kts | 200° |
| 2026-05-07 20:35 | -14.20410 | -42.18986 | 40018 ft | 440 kts | 200° |
| 2026-05-07 20:36 | -14.26153 | -42.21177 | 40020 ft | 441 kts | 201° |
| 2026-05-07 20:36 | -14.31903 | -42.23372 | 40022 ft | 441 kts | 201° |
| 2026-05-07 20:37 | -14.37708 | -42.25397 | 40024 ft | 441 kts | 197° |
| 2026-05-07 20:37 | -14.43639 | -42.27142 | 40031 ft | 440 kts | 197° |
| 2026-05-07 20:38 | -14.49508 | -42.28860 | 40034 ft | 440 kts | 196° |
| 2026-05-07 20:38 | -14.55379 | -42.30583 | 40029 ft | 440 kts | 197° |
| 2026-05-07 20:39 | -14.61264 | -42.32313 | 40033 ft | 440 kts | 197° |
| 2026-05-07 20:39 | -14.67143 | -42.34045 | 40040 ft | 438 kts | 196° |
| 2026-05-07 20:40 | -14.73004 | -42.35771 | 40033 ft | 437 kts | 196° |
| 2026-05-07 20:40 | -14.78837 | -42.37490 | 40041 ft | 437 kts | 196° |
| 2026-05-07 20:41 | -14.84709 | -42.39221 | 40044 ft | 437 kts | 196° |
| 2026-05-07 20:41 | -14.90557 | -42.40947 | 40044 ft | 437 kts | 196° |
| 2026-05-07 20:42 | -14.96399 | -42.42672 | 40048 ft | 437 kts | 196° |
| 2026-05-07 20:42 | -15.02228 | -42.44394 | 40051 ft | 437 kts | 196° |
| 2026-05-07 20:43 | -15.08082 | -42.46124 | 40050 ft | 437 kts | 196° |
| 2026-05-07 20:43 | -15.13921 | -42.47851 | 40052 ft | 437 kts | 196° |
| 2026-05-07 20:44 | -15.19751 | -42.49576 | 40061 ft | 435 kts | 196° |
| 2026-05-07 20:44 | -15.25570 | -42.51299 | 40059 ft | 435 kts | 196° |
| 2026-05-07 20:45 | -15.31398 | -42.53026 | 40059 ft | 435 kts | 196° |
| 2026-05-07 20:45 | -15.37217 | -42.54751 | 40056 ft | 435 kts | 196° |
| 2026-05-07 20:46 | -15.43028 | -42.56475 | 40061 ft | 433 kts | 196° |
| 2026-05-07 20:46 | -15.48822 | -42.58194 | 40051 ft | 433 kts | 196° |
| 2026-05-07 20:47 | -15.54590 | -42.59907 | 40060 ft | 433 kts | 196° |
| 2026-05-07 20:47 | -15.60399 | -42.61634 | 40040 ft | 433 kts | 196° |
| 2026-05-07 20:48 | -15.66204 | -42.63360 | 40055 ft | 434 kts | 196° |
| 2026-05-07 20:48 | -15.71972 | -42.65076 | 40057 ft | 433 kts | 196° |
| 2026-05-07 20:49 | -15.77774 | -42.66803 | 40051 ft | 433 kts | 196° |
| 2026-05-07 20:49 | -15.83558 | -42.68526 | 40057 ft | 433 kts | 196° |
| 2026-05-07 20:50 | -15.89380 | -42.70263 | 40056 ft | 432 kts | 196° |
| 2026-05-07 20:50 | -15.95122 | -42.71976 | 40054 ft | 432 kts | 196° |
| 2026-05-07 20:51 | -16.00890 | -42.73698 | 40049 ft | 432 kts | 196° |
| 2026-05-07 20:51 | -16.06665 | -42.75423 | 40061 ft | 431 kts | 196° |
| 2026-05-07 20:52 | -16.12450 | -42.77154 | 40051 ft | 431 kts | 196° |
| 2026-05-07 20:52 | -16.18206 | -42.78878 | 40049 ft | 430 kts | 196° |
| 2026-05-07 20:53 | -16.23937 | -42.80598 | 40064 ft | 430 kts | 196° |
| 2026-05-07 20:53 | -16.29696 | -42.82326 | 40043 ft | 430 kts | 196° |
| 2026-05-07 20:54 | -16.35477 | -42.84052 | 40065 ft | 432 kts | 196° |
| 2026-05-07 20:54 | -16.41241 | -42.85767 | 40055 ft | 431 kts | 196° |
| 2026-05-07 20:55 | -16.46962 | -42.87477 | 40062 ft | 430 kts | 196° |
| 2026-05-07 20:55 | -16.52752 | -42.89211 | 40063 ft | 430 kts | 196° |
| 2026-05-07 20:56 | -16.58496 | -42.90936 | 40055 ft | 430 kts | 196° |
| 2026-05-07 20:56 | -16.64230 | -42.92658 | 40058 ft | 430 kts | 196° |
| 2026-05-07 20:57 | -16.69980 | -42.94387 | 40066 ft | 430 kts | 196° |
| 2026-05-07 20:57 | -16.75743 | -42.96121 | 40067 ft | 430 kts | 196° |
| 2026-05-07 20:58 | -16.81505 | -42.97855 | 40055 ft | 430 kts | 196° |
| 2026-05-07 20:58 | -16.87224 | -42.99577 | 40056 ft | 430 kts | 196° |
| 2026-05-07 20:59 | -16.92952 | -43.01304 | 40064 ft | 429 kts | 196° |
| 2026-05-07 20:59 | -16.98724 | -43.03046 | 40059 ft | 430 kts | 196° |
| 2026-05-07 21:00 | -17.04473 | -43.04780 | 40067 ft | 431 kts | 197° |
| 2026-05-07 21:00 | -17.10185 | -43.06505 | 40072 ft | 430 kts | 197° |
| 2026-05-07 21:01 | -17.15950 | -43.08249 | 40058 ft | 430 kts | 197° |
| 2026-05-07 21:01 | -17.21718 | -43.09995 | 40067 ft | 430 kts | 197° |
| 2026-05-07 21:02 | -17.27437 | -43.11727 | 40063 ft | 430 kts | 197° |
| 2026-05-07 21:02 | -17.33190 | -43.13470 | 40060 ft | 430 kts | 197° |
| 2026-05-07 21:03 | -17.38939 | -43.15214 | 40060 ft | 429 kts | 197° |
| 2026-05-07 21:03 | -17.44668 | -43.16958 | 40063 ft | 429 kts | 197° |
| 2026-05-07 21:04 | -17.50393 | -43.18700 | 40063 ft | 429 kts | 197° |
| 2026-05-07 21:04 | -17.56135 | -43.20440 | 40066 ft | 429 kts | 197° |
| 2026-05-07 21:05 | -17.61872 | -43.22171 | 40065 ft | 429 kts | 197° |
| 2026-05-07 21:05 | -17.67609 | -43.23909 | 40070 ft | 429 kts | 197° |
| 2026-05-07 21:06 | -17.73336 | -43.25649 | 40065 ft | 429 kts | 197° |
| 2026-05-07 21:06 | -17.79062 | -43.27390 | 40078 ft | 428 kts | 197° |
| 2026-05-07 21:07 | -17.84795 | -43.29136 | 40073 ft | 428 kts | 197° |
| 2026-05-07 21:07 | -17.90509 | -43.30879 | 40076 ft | 428 kts | 197° |
| 2026-05-07 21:08 | -17.96229 | -43.32626 | 40084 ft | 428 kts | 197° |
| 2026-05-07 21:08 | -18.01927 | -43.34367 | 40086 ft | 427 kts | 197° |
| 2026-05-07 21:09 | -18.07638 | -43.36115 | 40091 ft | 427 kts | 197° |
| 2026-05-07 21:09 | -18.13339 | -43.37863 | 40087 ft | 427 kts | 197° |
| 2026-05-07 21:10 | -18.19033 | -43.39624 | 40081 ft | 427 kts | 198° |
| 2026-05-07 21:10 | -18.24611 | -43.41776 | 40095 ft | 427 kts | 203° |
| 2026-05-07 21:11 | -18.29976 | -43.44466 | 40088 ft | 427 kts | 207° |
| 2026-05-07 21:11 | -18.37830 | -43.48887 | 40095 ft | 427 kts | 208° |
| 2026-05-07 21:12 | -18.43063 | -43.51850 | 40098 ft | 426 kts | 208° |
| 2026-05-07 21:12 | -18.48285 | -43.54807 | 40100 ft | 426 kts | 208° |
| 2026-05-07 21:13 | -18.53497 | -43.57750 | 40093 ft | 426 kts | 208° |
| 2026-05-07 21:13 | -18.58733 | -43.60705 | 40094 ft | 426 kts | 208° |
| 2026-05-07 21:14 | -18.63952 | -43.63659 | 40086 ft | 426 kts | 208° |
| 2026-05-07 21:14 | -18.69168 | -43.66616 | 40092 ft | 426 kts | 208° |
| 2026-05-07 21:15 | -18.74385 | -43.69579 | 40089 ft | 426 kts | 208° |
| 2026-05-07 21:15 | -18.79595 | -43.72542 | 40086 ft | 426 kts | 208° |
| 2026-05-07 21:16 | -18.84803 | -43.75504 | 40080 ft | 426 kts | 208° |
| 2026-05-07 21:16 | -18.90014 | -43.78471 | 40080 ft | 426 kts | 208° |
| 2026-05-07 21:17 | -18.95230 | -43.81443 | 40077 ft | 426 kts | 208° |
| 2026-05-07 21:17 | -19.00437 | -43.84411 | 40066 ft | 426 kts | 208° |
| 2026-05-07 21:18 | -19.05666 | -43.87394 | 40071 ft | 426 kts | 208° |
| 2026-05-07 21:18 | -19.10889 | -43.90376 | 40069 ft | 425 kts | 208° |
| 2026-05-07 21:19 | -19.16056 | -43.93328 | 40061 ft | 425 kts | 208° |
| 2026-05-07 21:19 | -19.21265 | -43.96308 | 40060 ft | 425 kts | 208° |
| 2026-05-07 21:20 | -19.26475 | -43.99289 | 40054 ft | 425 kts | 208° |
| 2026-05-07 21:20 | -19.31656 | -44.02256 | 40074 ft | 424 kts | 208° |
| 2026-05-07 21:21 | -19.36855 | -44.05235 | 40085 ft | 424 kts | 208° |
| 2026-05-07 21:21 | -19.42045 | -44.08212 | 40056 ft | 424 kts | 208° |
| 2026-05-07 21:22 | -19.46368 | -44.10693 | 40057 ft | 424 kts | 208° |
| 2026-05-07 21:22 | -19.51563 | -44.13676 | 40066 ft | 424 kts | 209° |
| 2026-05-07 21:23 | -19.56748 | -44.16655 | 40057 ft | 423 kts | 209° |
| 2026-05-07 21:23 | -19.61938 | -44.19641 | 40057 ft | 424 kts | 209° |
| 2026-05-07 21:24 | -19.67092 | -44.22609 | 40059 ft | 423 kts | 209° |